NOAA Web Site Link Tides and Currents Home Page Transparent placeholder image

PORTS® Data Listing: 9414290 San Francisco, CA

CO-OPS RAW PORTS DATA

************************      PRELIMINARY DATA      ************************** 

     THIS RAW DATA HAS NOT BEEN SUBJECT TO THE NATIONAL OCEAN SERVICE'S        
     QUALITY CONTROL OR QUALITY ASSURANCE PROCEDURES AND DOES NOT MEET         
     THE CRITERIA AND STANDARDS OF OFFICIAL NATIONAL OCEAN SERVICE             
     DATA.  IT IS RELEASED FOR LIMITED PUBLIC USE AS PRELIMINARY DATA TO       
     BE USED ONLY WITH APPROPRIATE CAUTION.                                    

************************      PRELIMINARY DATA      ************************** 


       CD   -   Calendar date
       T    -   Time
       TZ   -   Timezone
       PW   -   Predicted water level (feet above MLLW)
       OW   -   Observed water level (feet above MLLW)
       WS   -   Wind speed (knots)
       WD   -   Wind direction (degrees true)
       WG   -   Wind gust (knots)
       AT   -   Air temperature (degrees farenheit)
       WT   -   Water temperature (degrees farenheit)
       AP   -   Air pressure (millibars)
       SA   -   Salinty (PSU - Practical Salinity Units)
       SG   -   Specific gravity
       RH   -   Relative humidity
       AG   -   Air gap (feet)
       VI   -   Visibility (nautical miles)

       ** NOTE **
       A variable that has its data fields filled with "9"s, indicates that
       data was not collected for that sample period.
       **********


STATION NAME: San Francisco (9414290)
****************************************************************************************************
    CD       T    TZ    PW     OW    WS   WD   WG    AT    WT    AP    SA    SG     RH    AG   VI
****************************************************************************************************
2019/07/13 03:12 PDT   -0.08   0.02    4  206   11  53.4  57.4 1011.8 -9.9 -9.999 -99.9 -99.99 -9.99
2019/07/13 03:18 PDT   -0.12  -0.00    6  220   10  53.4  57.4 1011.8 -9.9 -9.999 -99.9 -99.99 -9.99
2019/07/13 03:24 PDT   -0.16   0.01    4  177    9  53.4  57.4 1011.8 -9.9 -9.999 -99.9 -99.99 -9.99
2019/07/13 03:30 PDT   -0.19  -0.02    4  215    8  53.4  57.4 1011.8 -9.9 -9.999 -99.9 -99.99 -9.99
2019/07/13 03:36 PDT   -0.21  -0.08    3  173    6  53.4  57.4 1011.8 -9.9 -9.999 -99.9 -99.99 -9.99
2019/07/13 03:42 PDT   -0.23  -0.13    1  145    5  53.4  57.7 1011.8 -9.9 -9.999 -99.9 -99.99 -9.99
2019/07/13 03:48 PDT   -0.25  -0.13    2  174    8  53.6  57.9 1011.8 -9.9 -9.999 -99.9 -99.99 -9.99
2019/07/13 03:54 PDT   -0.25  -0.11    3  177    5  53.8  58.1 1011.8 -9.9 -9.999 -99.9 -99.99 -9.99
2019/07/13 04:00 PDT   -0.26  -0.10    4  200    8  53.8  58.1 1011.8 -9.9 -9.999 -99.9 -99.99 -9.99
2019/07/13 04:06 PDT   -0.25  -0.08    2  185    5  53.8  58.1 1011.8 -9.9 -9.999 -99.9 -99.99 -9.99
2019/07/13 04:12 PDT   -0.24  -0.08    5  201    9  53.8  58.1 1011.8 -9.9 -9.999 -99.9 -99.99 -9.99
2019/07/13 04:18 PDT   -0.23  -0.09    2  227    9  53.8  57.7 1011.8 -9.9 -9.999 -99.9 -99.99 -9.99
2019/07/13 04:24 PDT   -0.21  -0.05    5  223   10  53.8  58.1 1011.8 -9.9 -9.999 -99.9 -99.99 -9.99
2019/07/13 04:30 PDT   -0.19  -0.01    5  210    9  53.8  58.6 1011.9 -9.9 -9.999 -99.9 -99.99 -9.99
2019/07/13 04:36 PDT   -0.16   0.02    8  223   11  53.8  59.0 1012.0 -9.9 -9.999 -99.9 -99.99 -9.99
2019/07/13 04:42 PDT   -0.12   0.06    6  223    9  53.8  59.4 1012.0 -9.9 -9.999 -99.9 -99.99 -9.99
2019/07/13 04:48 PDT   -0.09   0.09    5  213   11  53.8  59.4 1012.1 -9.9 -9.999 -99.9 -99.99 -9.99
2019/07/13 04:54 PDT   -0.04   0.13    7  220   12  53.6  59.5 1012.1 -9.9 -9.999 -99.9 -99.99 -9.99
2019/07/13 05:00 PDT    0.00   0.17    5  217    8  53.6  59.7 1012.2 -9.9 -9.999 -99.9 -99.99 -9.99
2019/07/13 05:06 PDT    0.06   0.21    4  203   11  53.6  59.9 1012.1 -9.9 -9.999 -99.9 -99.99 -9.99
2019/07/13 05:12 PDT    0.11   0.27    4  194    7  53.6  59.9 1012.2 -9.9 -9.999 -99.9 -99.99 -9.99
2019/07/13 05:18 PDT    0.17   0.30    5  200   10  53.4  59.7 1012.2 -9.9 -9.999 -99.9 -99.99 -9.99
2019/07/13 05:24 PDT    0.23   0.36    5  205    9  53.4  59.7 1012.2 -9.9 -9.999 -99.9 -99.99 -9.99
2019/07/13 05:30 PDT    0.29   0.46    4  235   10  53.2  59.7 1012.2 -9.9 -9.999 -99.9 -99.99 -9.99
2019/07/13 05:36 PDT    0.36   0.55    4  194    9  53.2  60.3 1012.2 -9.9 -9.999 -99.9 -99.99 -9.99
2019/07/13 05:42 PDT    0.43   0.61    6  202   11  53.2  60.6 1012.2 -9.9 -9.999 -99.9 -99.99 -9.99
2019/07/13 05:48 PDT    0.51   0.68    7  209   10  53.2  61.0 1012.3 -9.9 -9.999 -99.9 -99.99 -9.99
2019/07/13 05:54 PDT    0.58   0.78    7  203   11  53.1  61.2 1012.3 -9.9 -9.999 -99.9 -99.99 -9.99
2019/07/13 06:00 PDT    0.66   0.84    4  185    8  53.2  61.3 1012.4 -9.9 -9.999 -99.9 -99.99 -9.99
2019/07/13 06:06 PDT    0.74   0.89    5  217    8  53.2  61.3 1012.5 -9.9 -9.999 -99.9 -99.99 -9.99
2019/07/13 06:12 PDT    0.83   0.98    5  198    8  53.2  61.3 1012.5 -9.9 -9.999 -99.9 -99.99 -9.99
2019/07/13 06:18 PDT    0.91   1.07    4  212   12  53.2  61.3 1012.6 -9.9 -9.999 -99.9 -99.99 -9.99
2019/07/13 06:24 PDT    1.00   1.17    5  226   10  53.1  61.3 1012.6 -9.9 -9.999 -99.9 -99.99 -9.99
2019/07/13 06:30 PDT    1.09   1.29    4  214    8  53.2  61.3 1012.6 -9.9 -9.999 -99.9 -99.99 -9.99
2019/07/13 06:36 PDT    1.18   1.39    5  258   10  53.2  61.3 1012.6 -9.9 -9.999 -99.9 -99.99 -9.99
2019/07/13 06:42 PDT    1.27   1.49    3  250    8  53.2  61.3 1012.6 -9.9 -9.999 -99.9 -99.99 -9.99
2019/07/13 06:48 PDT    1.36   1.59    4  220    7  53.1  61.3 1012.7 -9.9 -9.999 -99.9 -99.99 -9.99
2019/07/13 06:54 PDT    1.46   1.67    4  217   10  53.1  61.2 1012.7 -9.9 -9.999 -99.9 -99.99 -9.99
2019/07/13 07:00 PDT    1.56   1.77 -999 -999 -999 -99.9 -99.9 -999.9 -9.9 -9.999 -99.9 -99.99 -9.99
2019/07/13 07:06 PDT    1.65   1.90    4  234   10  53.1  61.2 1012.8 -9.9 -9.999 -99.9 -99.99 -9.99
2019/07/13 07:12 PDT    1.75   2.03    7  214   10  53.1  61.2 1012.9 -9.9 -9.999 -99.9 -99.99 -9.99
2019/07/13 07:18 PDT    1.85   2.12    6  224   11  52.9  61.2 1013.0 -9.9 -9.999 -99.9 -99.99 -9.99
2019/07/13 07:24 PDT    1.96   2.20    6  216   11  52.9  61.2 1013.0 -9.9 -9.999 -99.9 -99.99 -9.99
2019/07/13 07:30 PDT    2.06   2.30    5  201   11  53.1  61.2 1013.1 -9.9 -9.999 -99.9 -99.99 -9.99
2019/07/13 07:36 PDT    2.16   2.42    5  214    8  53.1  61.2 1013.2 -9.9 -9.999 -99.9 -99.99 -9.99
2019/07/13 07:42 PDT    2.26   2.53    5  214   10  53.2  61.0 1013.3 -9.9 -9.999 -99.9 -99.99 -9.99
2019/07/13 07:48 PDT    2.37   2.63    4  218   15  53.2  61.0 1013.4 -9.9 -9.999 -99.9 -99.99 -9.99
2019/07/13 07:54 PDT    2.47   2.72    6  217   10  53.1  61.0 1013.5 -9.9 -9.999 -99.9 -99.99 -9.99
2019/07/13 08:00 PDT    2.58   2.76    4  205    9  53.2  61.0 1013.5 -9.9 -9.999 -99.9 -99.99 -9.99
2019/07/13 08:06 PDT    2.68   2.84    5  215    8  53.2  61.0 1013.5 -9.9 -9.999 -99.9 -99.99 -9.99
2019/07/13 08:12 PDT    2.78   2.94 -999 -999 -999 -99.9 -99.9 -999.9 -9.9 -9.999 -99.9 -99.99 -9.99
2019/07/13 08:18 PDT    2.88   3.06    6  213   11  53.2  61.2 1013.6 -9.9 -9.999 -99.9 -99.99 -9.99
2019/07/13 08:24 PDT    2.99   3.18    3  204   10  53.2  61.0 1013.7 -9.9 -9.999 -99.9 -99.99 -9.99
2019/07/13 08:30 PDT    3.09   3.28    6  218    9  53.2  61.0 1013.7 -9.9 -9.999 -99.9 -99.99 -9.99
2019/07/13 08:36 PDT    3.18   3.36    4  240    7  53.2  61.0 1013.7 -9.9 -9.999 -99.9 -99.99 -9.99
2019/07/13 08:42 PDT    3.28   3.44    2  236    9  53.4  61.0 1013.8 -9.9 -9.999 -99.9 -99.99 -9.99
2019/07/13 08:48 PDT    3.37   3.53    5  226   10  53.2  61.0 1013.8 -9.9 -9.999 -99.9 -99.99 -9.99
2019/07/13 08:54 PDT    3.47   3.63    4  257    8  53.4  60.8 1013.8 -9.9 -9.999 -99.9 -99.99 -9.99
2019/07/13 09:00 PDT    3.56   3.75    4  221    8  53.4  60.6 1013.8 -9.9 -9.999 -99.9 -99.99 -9.99
2019/07/13 09:06 PDT    3.64   3.84    4  240   10  53.4  60.4 1013.8 -9.9 -9.999 -99.9 -99.99 -9.99
2019/07/13 09:12 PDT    3.73   3.89    6  219   12  53.6  60.3 1013.8 -9.9 -9.999 -99.9 -99.99 -9.99
2019/07/13 09:18 PDT    3.81   3.94    7  237   12  53.6  60.3 1013.8 -9.9 -9.999 -99.9 -99.99 -9.99
2019/07/13 09:24 PDT    3.88   4.03    4  233   11  53.6  60.1 1013.8 -9.9 -9.999 -99.9 -99.99 -9.99
2019/07/13 09:30 PDT    3.95   4.08    6  209   12  53.6  59.7 1013.7 -9.9 -9.999 -99.9 -99.99 -9.99
2019/07/13 09:36 PDT    4.02   4.15    3  231    8  53.8  59.7 1013.8 -9.9 -9.999 -99.9 -99.99 -9.99
2019/07/13 09:42 PDT    4.09   4.21    8  247   12  53.6  59.5 1013.9 -9.9 -9.999 -99.9 -99.99 -9.99
2019/07/13 09:48 PDT    4.15   4.25    7  233   11  53.4  59.5 1013.8 -9.9 -9.999 -99.9 -99.99 -9.99
2019/07/13 09:54 PDT    4.20   4.26    4  241    9  53.4  59.5 1013.9 -9.9 -9.999 -99.9 -99.99 -9.99
2019/07/13 10:00 PDT    4.25   4.32    7  215    9  53.6  59.4 1013.8 -9.9 -9.999 -99.9 -99.99 -9.99
2019/07/13 10:06 PDT    4.30   4.38    5  241   10  53.6  59.4 1014.0 -9.9 -9.999 -99.9 -99.99 -9.99
2019/07/13 10:12 PDT    4.34   4.42    9  219   13  53.4  59.4 1014.0 -9.9 -9.999 -99.9 -99.99 -9.99
2019/07/13 10:18 PDT    4.38   4.49    2  238   13  53.8  59.4 1014.0 -9.9 -9.999 -99.9 -99.99 -9.99
2019/07/13 10:24 PDT    4.41   4.53    4  254    8  54.0  59.4 1013.9 -9.9 -9.999 -99.9 -99.99 -9.99
2019/07/13 10:30 PDT    4.43   4.53    6  224   10  53.8  59.4 1013.9 -9.9 -9.999 -99.9 -99.99 -9.99
2019/07/13 10:36 PDT    4.45   4.52    5  218    9  54.0  59.4 1014.1 -9.9 -9.999 -99.9 -99.99 -9.99
2019/07/13 10:42 PDT    4.47   4.51    2  279    5  54.3  59.4 1014.1 -9.9 -9.999 -99.9 -99.99 -9.99
2019/07/13 10:48 PDT    4.48   4.50    4  209   11  54.3  59.4 1014.2 -9.9 -9.999 -99.9 -99.99 -9.99
2019/07/13 10:54 PDT    4.49   4.51    5  229   11  54.3  59.4 1014.2 -9.9 -9.999 -99.9 -99.99 -9.99
2019/07/13 11:00 PDT    4.49   4.56    4  239    9  54.5  59.4 1014.2 -9.9 -9.999 -99.9 -99.99 -9.99
2019/07/13 11:06 PDT    4.48   4.55    6  240   10  54.7  59.4 1014.2 -9.9 -9.999 -99.9 -99.99 -9.99
2019/07/13 11:12 PDT    4.47   4.52    4  226    9  54.9  59.4 1014.2 -9.9 -9.999 -99.9 -99.99 -9.99
2019/07/13 11:18 PDT    4.46   4.50    3  237    8  55.2  59.4 1014.2 -9.9 -9.999 -99.9 -99.99 -9.99
2019/07/13 11:24 PDT    4.44   4.47    7  249   10  55.2  59.4 1014.2 -9.9 -9.999 -99.9 -99.99 -9.99
2019/07/13 11:30 PDT    4.41   4.42    8  219   13  55.4  59.5 1014.2 -9.9 -9.999 -99.9 -99.99 -9.99
2019/07/13 11:36 PDT    4.39   4.41    7  247   12  55.4  59.5 1014.2 -9.9 -9.999 -99.9 -99.99 -9.99
2019/07/13 11:42 PDT    4.35   4.38    5  262   11  55.6  59.5 1014.2 -9.9 -9.999 -99.9 -99.99 -9.99
2019/07/13 11:48 PDT    4.32   4.39    7  247   12  55.4  59.5 1014.1 -9.9 -9.999 -99.9 -99.99 -9.99
2019/07/13 11:54 PDT    4.27   4.38    3  241   14  55.6  59.4 1014.1 -9.9 -9.999 -99.9 -99.99 -9.99
2019/07/13 12:00 PDT    4.23   4.36    4  239   13  55.6  59.4 1014.1 -9.9 -9.999 -99.9 -99.99 -9.99
2019/07/13 12:06 PDT    4.18   4.33    7  223   11  55.8  59.2 1014.0 -9.9 -9.999 -99.9 -99.99 -9.99
2019/07/13 12:12 PDT    4.13   4.31    3  242   12  55.6  59.0 1014.0 -9.9 -9.999 -99.9 -99.99 -9.99
2019/07/13 12:18 PDT    4.08   4.30    7  271   11  55.2  58.8 1014.0 -9.9 -9.999 -99.9 -99.99 -9.99
2019/07/13 12:24 PDT    4.02   4.23    6  276   14  55.0  58.8 1014.0 -9.9 -9.999 -99.9 -99.99 -9.99
2019/07/13 12:30 PDT    3.96   4.16    6  210   11  55.4  59.0 1014.1 -9.9 -9.999 -99.9 -99.99 -9.99
2019/07/13 12:36 PDT    3.90   4.12    3  240    7  55.6  59.2 1014.2 -9.9 -9.999 -99.9 -99.99 -9.99
2019/07/13 12:42 PDT    3.84   4.06    5  229   13  55.6  59.0 1014.1 -9.9 -9.999 -99.9 -99.99 -9.99
2019/07/13 12:48 PDT    3.77   4.00    4  287   13  55.6  58.8 1014.1 -9.9 -9.999 -99.9 -99.99 -9.99
2019/07/13 12:54 PDT    3.71   3.98    6  256   13  55.6  59.0 1014.1 -9.9 -9.999 -99.9 -99.99 -9.99
2019/07/13 13:00 PDT    3.64   3.91    5  287   10  55.8  58.6 1014.1 -9.9 -9.999 -99.9 -99.99 -9.99
2019/07/13 13:06 PDT    3.58   3.81    2  304   11  55.9  58.6 1014.2 -9.9 -9.999 -99.9 -99.99 -9.99
2019/07/13 13:12 PDT    3.51   3.76    6  246   14  55.8  58.5 1014.1 -9.9 -9.999 -99.9 -99.99 -9.99
2019/07/13 13:18 PDT    3.45   3.71    3  272    8  55.9  58.5 1014.0 -9.9 -9.999 -99.9 -99.99 -9.99
2019/07/13 13:24 PDT    3.38   3.62    4  203   11  56.1  58.5 1014.0 -9.9 -9.999 -99.9 -99.99 -9.99
2019/07/13 13:30 PDT    3.32   3.55    7  221   12  55.8  58.6 1013.9 -9.9 -9.999 -99.9 -99.99 -9.99
2019/07/13 13:36 PDT    3.26   3.53    4  266   12  55.9  58.6 1013.9 -9.9 -9.999 -99.9 -99.99 -9.99
2019/07/13 13:42 PDT    3.20   3.44    4  248   13  55.9  58.6 1013.9 -9.9 -9.999 -99.9 -99.99 -9.99
2019/07/13 13:48 PDT    3.14   3.34    4  253   11  55.9  58.6 1013.8 -9.9 -9.999 -99.9 -99.99 -9.99
2019/07/13 13:54 PDT    3.09   3.29    6  240   10  56.1  58.6 1013.8 -9.9 -9.999 -99.9 -99.99 -9.99
2019/07/13 14:00 PDT    3.03   3.24    9  247   17  55.6  58.6 1013.7 -9.9 -9.999 -99.9 -99.99 -9.99
2019/07/13 14:06 PDT    2.98   3.17    8  247   16  55.6  58.5 1013.7 -9.9 -9.999 -99.9 -99.99 -9.99
2019/07/13 14:12 PDT    2.93   3.14    7  239   12  55.8  58.5 1013.6 -9.9 -9.999 -99.9 -99.99 -9.99
2019/07/13 14:18 PDT    2.89   3.08   11  244   17  55.8  58.5 1013.5 -9.9 -9.999 -99.9 -99.99 -9.99
2019/07/13 14:24 PDT    2.85   3.02    7  247   15  56.1  58.5 1013.5 -9.9 -9.999 -99.9 -99.99 -9.99
2019/07/13 14:30 PDT    2.81   3.00    7  243   16  55.9  58.6 1013.5 -9.9 -9.999 -99.9 -99.99 -9.99
2019/07/13 14:36 PDT    2.77   2.97    8  261   18  56.3  58.6 1013.4 -9.9 -9.999 -99.9 -99.99 -9.99
2019/07/13 14:42 PDT    2.74   2.94   12  240   19  56.3  58.6 1013.4 -9.9 -9.999 -99.9 -99.99 -9.99
2019/07/13 14:48 PDT    2.72   2.93    9  264   17  56.3  58.6 1013.3 -9.9 -9.999 -99.9 -99.99 -9.99
2019/07/13 14:54 PDT    2.69   2.87    8  247   17  56.5  58.6 1013.3 -9.9 -9.999 -99.9 -99.99 -9.99
2019/07/13 15:00 PDT    2.68   2.83    8  247   11  56.8  58.6 1013.3 -9.9 -9.999 -99.9 -99.99 -9.99
2019/07/13 15:06 PDT    2.66   2.81    6  247   16  56.8  58.8 1013.3 -9.9 -9.999 -99.9 -99.99 -9.99
2019/07/13 15:12 PDT    2.65   2.78    6  244   12  57.0  58.8 1013.2 -9.9 -9.999 -99.9 -99.99 -9.99
2019/07/13 15:18 PDT    2.64   2.76   12  233   19  56.8  59.2 1013.1 -9.9 -9.999 -99.9 -99.99 -9.99
2019/07/13 15:24 PDT    2.64   2.78    6  256   16  57.0  59.2 1013.0 -9.9 -9.999 -99.9 -99.99 -9.99
2019/07/13 15:30 PDT    2.64   2.77    9  250   21  56.8  59.2 1013.0 -9.9 -9.999 -99.9 -99.99 -9.99
2019/07/13 15:36 PDT    2.65   2.76   11  243   18  56.8  59.5 1012.9 -9.9 -9.999 -99.9 -99.99 -9.99
2019/07/13 15:42 PDT    2.66   2.76   10  238   19  56.7  59.7 1012.9 -9.9 -9.999 -99.9 -99.99 -9.99
2019/07/13 15:48 PDT    2.68   2.77   13  242   20  56.7  59.7 1012.8 -9.9 -9.999 -99.9 -99.99 -9.99
2019/07/13 15:54 PDT    2.70   2.80   12  245   20  56.8  59.7 1012.7 -9.9 -9.999 -99.9 -99.99 -9.99
2019/07/13 16:00 PDT    2.72   2.83   10  245   20  57.0  59.7 1012.6 -9.9 -9.999 -99.9 -99.99 -9.99
2019/07/13 16:06 PDT    2.75   2.85   14  242   22  56.7  59.7 1012.6 -9.9 -9.999 -99.9 -99.99 -9.99
2019/07/13 16:12 PDT    2.78   2.86   12  241   21  56.7  59.9 1012.6 -9.9 -9.999 -99.9 -99.99 -9.99
2019/07/13 16:18 PDT    2.82   2.89   13  240   21  56.7  59.9 1012.5 -9.9 -9.999 -99.9 -99.99 -9.99
2019/07/13 16:24 PDT    2.86   2.93   12  246   19  56.8  60.1 1012.5 -9.9 -9.999 -99.9 -99.99 -9.99
2019/07/13 16:30 PDT    2.91   2.98   14  243   20  56.8  60.1 1012.4 -9.9 -9.999 -99.9 -99.99 -9.99
2019/07/13 16:36 PDT    2.96   3.03   11  248   19  56.8  60.1 1012.4 -9.9 -9.999 -99.9 -99.99 -9.99
2019/07/13 16:42 PDT    3.01   3.08   11  237   21  56.7  59.9 1012.5 -9.9 -9.999 -99.9 -99.99 -9.99
2019/07/13 16:48 PDT    3.07   3.11    8  237   19  56.8  60.3 1012.5 -9.9 -9.999 -99.9 -99.99 -9.99
2019/07/13 16:54 PDT    3.13   3.12    9  236   23  56.8  60.3 1012.5 -9.9 -9.999 -99.9 -99.99 -9.99
2019/07/13 17:00 PDT    3.19   3.20   12  240   19  56.8  60.1 1012.4 -9.9 -9.999 -99.9 -99.99 -9.99
2019/07/13 17:06 PDT    3.26   3.26   10  234   18  56.8  60.1 1012.3 -9.9 -9.999 -99.9 -99.99 -9.99
2019/07/13 17:12 PDT    3.33   3.33 -999 -999 -999 -99.9 -99.9 -999.9 -9.9 -9.999 -99.9 -99.99 -9.99
2019/07/13 17:18 PDT    3.41   3.40   11  246   18  56.7  59.2 1012.3 -9.9 -9.999 -99.9 -99.99 -9.99
2019/07/13 17:24 PDT    3.48   3.49   13  245   17  56.7  59.2 1012.3 -9.9 -9.999 -99.9 -99.99 -9.99
2019/07/13 17:30 PDT    3.56   3.60   10  244   17  56.7  59.0 1012.4 -9.9 -9.999 -99.9 -99.99 -9.99
2019/07/13 17:36 PDT    3.64   3.69    8  241   18  56.8  59.4 1012.3 -9.9 -9.999 -99.9 -99.99 -9.99
2019/07/13 17:42 PDT    3.73   3.77    8  243   19  56.8  59.4 1012.2 -9.9 -9.999 -99.9 -99.99 -9.99
2019/07/13 17:48 PDT    3.81   3.82   13  233   18  56.8  59.4 1012.1 -9.9 -9.999 -99.9 -99.99 -9.99
2019/07/13 17:54 PDT    3.90   3.88   12  242   22  56.8  59.4 1012.1 -9.9 -9.999 -99.9 -99.99 -9.99
2019/07/13 18:00 PDT    3.99   3.96   14  241   21  57.0  59.4 1012.1 -9.9 -9.999 -99.9 -99.99 -9.99
2019/07/13 18:06 PDT    4.08   4.06   16  244   23  57.0  59.4 1012.0 -9.9 -9.999 -99.9 -99.99 -9.99
2019/07/13 18:12 PDT    4.17   4.12   16  244   25  57.0  59.4 1012.1 -9.9 -9.999 -99.9 -99.99 -9.99
2019/07/13 18:18 PDT    4.26   4.23   14  240   21  57.0  59.4 1012.2 -9.9 -9.999 -99.9 -99.99 -9.99
2019/07/13 18:24 PDT    4.35   4.32   13  239   21  57.2  59.4 1012.1 -9.9 -9.999 -99.9 -99.99 -9.99
2019/07/13 18:30 PDT    4.44   4.39   12  239   20  57.2  59.4 1012.1 -9.9 -9.999 -99.9 -99.99 -9.99
2019/07/13 18:36 PDT    4.53   4.51   11  244   18  57.4  59.4 1012.1 -9.9 -9.999 -99.9 -99.99 -9.99
2019/07/13 18:42 PDT    4.62   4.59   14  241   21  57.4  59.4 1012.1 -9.9 -9.999 -99.9 -99.99 -9.99
2019/07/13 18:48 PDT    4.72   4.62   10  245   18  57.4  59.4 1012.2 -9.9 -9.999 -99.9 -99.99 -9.99
2019/07/13 18:54 PDT    4.81   4.71   11  244   15  57.4  59.4 1012.2 -9.9 -9.999 -99.9 -99.99 -9.99
2019/07/13 19:00 PDT    4.90   4.80   10  240   17  57.4  59.4 1012.3 -9.9 -9.999 -99.9 -99.99 -9.99
2019/07/13 19:06 PDT    4.99   4.87   11  239   18  57.6  59.4 1012.2 -9.9 -9.999 -99.9 -99.99 -9.99
2019/07/13 19:12 PDT    5.08   4.96   12  239   18  57.6  59.4 1012.1 -9.9 -9.999 -99.9 -99.99 -9.99
2019/07/13 19:18 PDT    5.17   5.08   14  237   18  57.6  59.4 1012.1 -9.9 -9.999 -99.9 -99.99 -9.99
2019/07/13 19:24 PDT    5.25   5.17   10  239   16  57.6  59.2 1012.0 -9.9 -9.999 -99.9 -99.99 -9.99
2019/07/13 19:30 PDT    5.34   5.29   14  242   19  57.6  59.2 1012.0 -9.9 -9.999 -99.9 -99.99 -9.99
2019/07/13 19:36 PDT    5.43   5.38   13  243   17  57.6  59.2 1012.0 -9.9 -9.999 -99.9 -99.99 -9.99
2019/07/13 19:42 PDT    5.51   5.46   11  242   18  57.6  59.2 1012.0 -9.9 -9.999 -99.9 -99.99 -9.99
2019/07/13 19:48 PDT    5.59   5.53   14  245   19  57.4  59.2 1012.0 -9.9 -9.999 -99.9 -99.99 -9.99
2019/07/13 19:54 PDT    5.67   5.66   12  242   20  57.4  59.2 1012.0 -9.9 -9.999 -99.9 -99.99 -9.99
2019/07/13 20:00 PDT    5.75   5.77   11  246   20  57.4  59.2 1012.1 -9.9 -9.999 -99.9 -99.99 -9.99
2019/07/13 20:06 PDT    5.82   5.84   12  245   18  57.2  59.2 1012.0 -9.9 -9.999 -99.9 -99.99 -9.99
2019/07/13 20:12 PDT    5.90   5.90   13  244   18  57.2  59.2 1012.0 -9.9 -9.999 -99.9 -99.99 -9.99
2019/07/13 20:18 PDT    5.97   5.95   13  244   20  57.0  59.0 1012.0 -9.9 -9.999 -99.9 -99.99 -9.99
2019/07/13 20:24 PDT    6.03   6.00   15  247   20  57.0  59.0 1011.9 -9.9 -9.999 -99.9 -99.99 -9.99
2019/07/13 20:30 PDT    6.10   6.08   14  240   21  56.8  58.8 1012.0 -9.9 -9.999 -99.9 -99.99 -9.99
2019/07/13 20:36 PDT    6.16   6.15   15  238   23  56.8  58.1 1012.0 -9.9 -9.999 -99.9 -99.99 -9.99
2019/07/13 20:42 PDT    6.22   6.22   15  239   22  56.8  57.7 1012.0 -9.9 -9.999 -99.9 -99.99 -9.99
2019/07/13 20:48 PDT    6.27   6.25   14  241   20  56.7  57.6 1012.1 -9.9 -9.999 -99.9 -99.99 -9.99
2019/07/13 20:54 PDT    6.32   6.30   16  241   23  56.7  57.6 1012.0 -9.9 -9.999 -99.9 -99.99 -9.99
2019/07/13 21:00 PDT    6.36   6.36   16  241   22  56.7  57.4 1012.1 -9.9 -9.999 -99.9 -99.99 -9.99
2019/07/13 21:06 PDT    6.40   6.42   15  246   22  56.5  57.4 1012.1 -9.9 -9.999 -99.9 -99.99 -9.99
2019/07/13 21:12 PDT    6.44   6.47   14  236   20  56.5  57.2 1012.3 -9.9 -9.999 -99.9 -99.99 -9.99
2019/07/13 21:18 PDT    6.47   6.50   13  237   19  56.5  57.2 1012.4 -9.9 -9.999 -99.9 -99.99 -9.99
2019/07/13 21:24 PDT    6.49   6.52   15  241   21  56.3  57.2 1012.4 -9.9 -9.999 -99.9 -99.99 -9.99
2019/07/13 21:30 PDT    6.51   6.52   14  239   19  56.3  57.0 1012.5 -9.9 -9.999 -99.9 -99.99 -9.99
2019/07/13 21:36 PDT    6.52   6.55   15  241   20  56.3  57.0 1012.6 -9.9 -9.999 -99.9 -99.99 -9.99
2019/07/13 21:42 PDT    6.53   6.55   14  241   21  56.3  57.0 1012.6 -9.9 -9.999 -99.9 -99.99 -9.99
2019/07/13 21:48 PDT    6.53   6.54   14  242   17  56.1  56.8 1012.6 -9.9 -9.999 -99.9 -99.99 -9.99
2019/07/13 21:54 PDT    6.52   6.56   18  237   24  56.1  56.8 1012.5 -9.9 -9.999 -99.9 -99.99 -9.99
2019/07/13 22:00 PDT    6.51   6.55   15  234   23  56.1  56.8 1012.6 -9.9 -9.999 -99.9 -99.99 -9.99
2019/07/13 22:06 PDT    6.49   6.54   13  236   20  55.9  56.8 1012.7 -9.9 -9.999 -99.9 -99.99 -9.99
2019/07/13 22:12 PDT    6.46   6.56   12  237   19  55.9  57.0 1012.8 -9.9 -9.999 -99.9 -99.99 -9.99
2019/07/13 22:18 PDT    6.43   6.49    7  230   18  55.9  57.0 1012.9 -9.9 -9.999 -99.9 -99.99 -9.99
2019/07/13 22:24 PDT    6.39   6.43    9  231   15  55.9  57.0 1013.0 -9.9 -9.999 -99.9 -99.99 -9.99
2019/07/13 22:30 PDT    6.35   6.41    6  225    9  55.8  57.0 1013.0 -9.9 -9.999 -99.9 -99.99 -9.99
2019/07/13 22:36 PDT    6.29   6.38    5  201   10  55.8  57.0 1013.0 -9.9 -9.999 -99.9 -99.99 -9.99
2019/07/13 22:42 PDT    6.23   6.32    6  197   12  55.8  57.0 1013.1 -9.9 -9.999 -99.9 -99.99 -9.99
2019/07/13 22:48 PDT    6.16   6.26    3  160   10  55.8  57.0 1013.0 -9.9 -9.999 -99.9 -99.99 -9.99
2019/07/13 22:54 PDT    6.09   6.19    6  203   13  55.6  57.0 1012.9 -9.9 -9.999 -99.9 -99.99 -9.99
2019/07/13 23:00 PDT    6.01   6.12    4  213   12  55.6  56.8 1012.9 -9.9 -9.999 -99.9 -99.99 -9.99
2019/07/13 23:06 PDT    5.92   6.05    4  224   11  55.6  56.8 1013.0 -9.9 -9.999 -99.9 -99.99 -9.99
2019/07/13 23:12 PDT    5.83   5.96    2  177    8  55.6  56.8 1013.1 -9.9 -9.999 -99.9 -99.99 -9.99
2019/07/13 23:18 PDT    5.73   5.81    6  205   11  55.6  56.8 1013.1 -9.9 -9.999 -99.9 -99.99 -9.99
2019/07/13 23:24 PDT    5.62   5.69    4  191   10  55.4  56.8 1013.1 -9.9 -9.999 -99.9 -99.99 -9.99
2019/07/13 23:30 PDT    5.51   5.62    4  205   10  55.4  56.8 1013.2 -9.9 -9.999 -99.9 -99.99 -9.99
2019/07/13 23:36 PDT    5.39   5.51    3  162    6  55.4  56.8 1013.2 -9.9 -9.999 -99.9 -99.99 -9.99
2019/07/13 23:42 PDT    5.27   5.39    4  182   11  55.4  56.8 1013.2 -9.9 -9.999 -99.9 -99.99 -9.99
2019/07/13 23:48 PDT    5.14   5.27    4  231    9  55.4  56.7 1013.3 -9.9 -9.999 -99.9 -99.99 -9.99
2019/07/13 23:54 PDT    5.01   5.12    4  192   12  55.4  56.7 1013.3 -9.9 -9.999 -99.9 -99.99 -9.99
2019/07/14 00:00 PDT    4.87   4.96    4  163   10  55.4  56.7 1013.4 -9.9 -9.999 -99.9 -99.99 -9.99
2019/07/14 00:06 PDT    4.73   4.83    2  184    4  55.2  56.7 1013.5 -9.9 -9.999 -99.9 -99.99 -9.99
2019/07/14 00:12 PDT    4.58   4.70    3  166    5  55.2  56.7 1013.5 -9.9 -9.999 -99.9 -99.99 -9.99
2019/07/14 00:18 PDT    4.43   4.54    5  194    8  55.2  56.7 1013.5 -9.9 -9.999 -99.9 -99.99 -9.99
2019/07/14 00:24 PDT    4.28   4.37    4  209    9  55.0  56.7 1013.5 -9.9 -9.999 -99.9 -99.99 -9.99
2019/07/14 00:30 PDT    4.12   4.20    4  194   11  55.0  56.7 1013.5 -9.9 -9.999 -99.9 -99.99 -9.99
2019/07/14 00:36 PDT    3.96   4.01    4  203    9  55.0  56.7 1013.4 -9.9 -9.999 -99.9 -99.99 -9.99
2019/07/14 00:42 PDT    3.80   3.83    5  206   11  54.9  56.7 1013.4 -9.9 -9.999 -99.9 -99.99 -9.99
2019/07/14 00:48 PDT    3.64   3.66    2   73    8  54.9  56.7 1013.5 -9.9 -9.999 -99.9 -99.99 -9.99
2019/07/14 00:54 PDT    3.47   3.45    6  193   11  54.9  56.7 1013.5 -9.9 -9.999 -99.9 -99.99 -9.99
2019/07/14 01:00 PDT    3.30   3.28    3  194    7  54.9  56.7 1013.6 -9.9 -9.999 -99.9 -99.99 -9.99
2019/07/14 01:06 PDT    3.14   3.13    4  193    8  54.9  56.7 1013.6 -9.9 -9.999 -99.9 -99.99 -9.99
2019/07/14 01:12 PDT    2.97   2.96    2  165    6  54.7  56.7 1013.5 -9.9 -9.999 -99.9 -99.99 -9.99
2019/07/14 01:18 PDT    2.80   2.77    4  153    7  54.7  56.7 1013.5 -9.9 -9.999 -99.9 -99.99 -9.99
2019/07/14 01:24 PDT    2.64   2.61    3  268    8  54.5  56.7 1013.5 -9.9 -9.999 -99.9 -99.99 -9.99
2019/07/14 01:30 PDT    2.48   2.40    3  220    9  54.5  56.7 1013.6 -9.9 -9.999 -99.9 -99.99 -9.99
2019/07/14 01:36 PDT    2.31   2.22    2  175    9  54.3  56.7 1013.6 -9.9 -9.999 -99.9 -99.99 -9.99
2019/07/14 01:42 PDT    2.15   2.10    3  191    5  54.3  56.7 1013.6 -9.9 -9.999 -99.9 -99.99 -9.99
2019/07/14 01:48 PDT    1.99   1.94    4  235    9  54.1  56.7 1013.6 -9.9 -9.999 -99.9 -99.99 -9.99
2019/07/14 01:54 PDT    1.84   1.80    5  214   15  54.0  56.7 1013.6 -9.9 -9.999 -99.9 -99.99 -9.99
2019/07/14 02:00 PDT    1.68   1.64    7  208   12  54.0  56.7 1013.7 -9.9 -9.999 -99.9 -99.99 -9.99
2019/07/14 02:06 PDT    1.54   1.54    4  216   10  53.8  56.7 1013.7 -9.9 -9.999 -99.9 -99.99 -9.99
2019/07/14 02:12 PDT    1.39   1.40    6  262   11  53.6  56.5 1013.7 -9.9 -9.999 -99.9 -99.99 -9.99
2019/07/14 02:18 PDT    1.25   1.28    6  221   11  53.6  56.5 1013.6 -9.9 -9.999 -99.9 -99.99 -9.99
2019/07/14 02:24 PDT    1.11   1.19    3  215   10  53.4  56.5 1013.6 -9.9 -9.999 -99.9 -99.99 -9.99
2019/07/14 02:30 PDT    0.98   1.07    6  206   12  53.4  56.5 1013.6 -9.9 -9.999 -99.9 -99.99 -9.99
2019/07/14 02:36 PDT    0.85   0.93    7  240   12  53.2  56.5 1013.5 -9.9 -9.999 -99.9 -99.99 -9.99
2019/07/14 02:42 PDT    0.73   0.80    3  184   14  53.2  56.5 1013.5 -9.9 -9.999 -99.9 -99.99 -9.99
2019/07/14 02:48 PDT    0.61   0.69    6  222   17  53.1  56.5 1013.5 -9.9 -9.999 -99.9 -99.99 -9.99
2019/07/14 02:54 PDT    0.50   0.55    9  237   17  52.9  56.5 1013.5 -9.9 -9.999 -99.9 -99.99 -9.99
2019/07/14 03:00 PDT    0.39   0.44    8  238   14  52.9  56.7 1013.5 -9.9 -9.999 -99.9 -99.99 -9.99
2019/07/14 03:06 PDT    0.29   0.34    9  235   18  52.9  56.7 1013.5 -9.9 -9.999 -99.9 -99.99 -9.99
2019/07/14 03:12 PDT    0.19   0.24   12  243   19  52.7  56.7 1013.5 -9.9 -9.999 -99.9 -99.99 -9.99
2019/07/14 03:18 PDT    0.11   0.17   11  238   17  52.7  56.7 1013.6 -9.9 -9.999 -99.9 -99.99 -9.99
2019/07/14 03:24 PDT    0.02   0.11    7  240   16  52.7  56.7 1013.7 -9.9 -9.999 -99.9 -99.99 -9.99
2019/07/14 03:30 PDT   -0.06   0.04    6  226   12  52.7  56.7 1013.7 -9.9 -9.999 -99.9 -99.99 -9.99
2019/07/14 03:36 PDT   -0.13  -0.04    8  239   13  52.7  56.7 1013.7 -9.9 -9.999 -99.9 -99.99 -9.99
2019/07/14 03:42 PDT   -0.19  -0.15    7  232   16  52.7  56.5 1013.7 -9.9 -9.999 -99.9 -99.99 -9.99
2019/07/14 03:48 PDT   -0.25  -0.21    8  245   16  52.7  56.5 1013.7 -9.9 -9.999 -99.9 -99.99 -9.99
2019/07/14 03:54 PDT   -0.31  -0.28    9  240   13  52.7  56.5 1013.8 -9.9 -9.999 -99.9 -99.99 -9.99
2019/07/14 04:00 PDT   -0.35  -0.33    9  240   15  52.7  56.5 1013.8 -9.9 -9.999 -99.9 -99.99 -9.99
2019/07/14 04:06 PDT   -0.40  -0.34   12  235   17  52.7  56.5 1013.7 -9.9 -9.999 -99.9 -99.99 -9.99
2019/07/14 04:12 PDT   -0.43  -0.35   10  240   16  52.9  56.5 1013.7 -9.9 -9.999 -99.9 -99.99 -9.99
2019/07/14 04:18 PDT   -0.46  -0.37   12  238   17  52.9  56.5 1013.7 -9.9 -9.999 -99.9 -99.99 -9.99
2019/07/14 04:24 PDT   -0.48  -0.42    8  245   15  52.7  56.5 1013.8 -9.9 -9.999 -99.9 -99.99 -9.99
2019/07/14 04:30 PDT   -0.50  -0.42   11  255   15  52.7  57.0 1013.9 -9.9 -9.999 -99.9 -99.99 -9.99
2019/07/14 04:36 PDT   -0.51  -0.45    8  247   13  52.7  57.4 1013.9 -9.9 -9.999 -99.9 -99.99 -9.99
2019/07/14 04:42 PDT   -0.52  -0.48    9  259   16  52.5  57.6 1014.0 -9.9 -9.999 -99.9 -99.99 -9.99
2019/07/14 04:48 PDT   -0.52  -0.49    8  242   19  52.7  57.9 1014.1 -9.9 -9.999 -99.9 -99.99 -9.99
2019/07/14 04:54 PDT   -0.51  -0.46   10  233   16  52.5  58.1 1014.1 -9.9 -9.999 -99.9 -99.99 -9.99
2019/07/14 05:00 PDT   -0.50  -0.43   11  247   15  52.5  58.1 1014.1 -9.9 -9.999 -99.9 -99.99 -9.99
2019/07/14 05:06 PDT   -0.48  -0.40    9  238   13  52.7  58.1 1014.1 -9.9 -9.999 -99.9 -99.99 -9.99
2019/07/14 05:12 PDT   -0.46  -0.39   11  235   16  52.5  58.3 1014.2 -9.9 -9.999 -99.9 -99.99 -9.99
2019/07/14 05:18 PDT   -0.43  -0.38   10  241   15  52.5  58.3 1014.3 -9.9 -9.999 -99.9 -99.99 -9.99
2019/07/14 05:24 PDT   -0.40  -0.33    6  234   12  52.7  58.3 1014.4 -9.9 -9.999 -99.9 -99.99 -9.99
2019/07/14 05:30 PDT   -0.36  -0.28    6  222   12  53.1  58.8 1014.4 -9.9 -9.999 -99.9 -99.99 -9.99
2019/07/14 05:36 PDT   -0.32  -0.24    8  236   12  53.4  59.2 1014.6 -9.9 -9.999 -99.9 -99.99 -9.99
2019/07/14 05:42 PDT   -0.27  -0.22    7  240   16  53.6  59.5 1014.7 -9.9 -9.999 -99.9 -99.99 -9.99
2019/07/14 05:48 PDT   -0.22  -0.19    6  249   16  53.6  59.7 1014.7 -9.9 -9.999 -99.9 -99.99 -9.99
2019/07/14 05:54 PDT   -0.16  -0.14    7  251   12  53.8  59.7 1014.8 -9.9 -9.999 -99.9 -99.99 -9.99
2019/07/14 06:00 PDT   -0.11  -0.08    5  250   17  53.8  59.7 1014.8 -9.9 -9.999 -99.9 -99.99 -9.99
2019/07/14 06:06 PDT   -0.04   0.01    5  241   14  53.8  60.1 1014.9 -9.9 -9.999 -99.9 -99.99 -9.99
2019/07/14 06:12 PDT    0.02   0.10    4  244   14  53.8  60.3 1015.0 -9.9 -9.999 -99.9 -99.99 -9.99
2019/07/14 06:18 PDT    0.09   0.19   10  235   17  54.0  60.4 1015.1 -9.9 -9.999 -99.9 -99.99 -9.99
2019/07/14 06:24 PDT    0.17   0.29    9  236   15  54.0  60.4 1015.1 -9.9 -9.999 -99.9 -99.99 -9.99
2019/07/14 06:30 PDT    0.24   0.36    9  246   15  54.0  60.6 1015.2 -9.9 -9.999 -99.9 -99.99 -9.99
2019/07/14 06:36 PDT    0.32   0.43   10  245   17  54.1  60.6 1015.2 -9.9 -9.999 -99.9 -99.99 -9.99
2019/07/14 06:42 PDT    0.40   0.49    8  227   15  54.1  60.8 1015.3 -9.9 -9.999 -99.9 -99.99 -9.99
2019/07/14 06:48 PDT    0.49   0.56    7  227   14  54.3  60.8 1015.3 -9.9 -9.999 -99.9 -99.99 -9.99
2019/07/14 06:54 PDT    0.57   0.63    8  243   14  54.3  60.8 1015.3 -9.9 -9.999 -99.9 -99.99 -9.99
2019/07/14 07:00 PDT    0.66   0.74    7  243   13  54.5  61.0 1015.3 -9.9 -9.999 -99.9 -99.99 -9.99
2019/07/14 07:06 PDT    0.75   0.85    9  243   15  54.3  61.0 1015.3 -9.9 -9.999 -99.9 -99.99 -9.99
2019/07/14 07:12 PDT    0.85   0.95   11  251   16  54.3  61.0 1015.3 -9.9 -9.999 -99.9 -99.99 -9.99
2019/07/14 07:18 PDT    0.94   1.05    9  246   15  54.3  60.8 1015.4 -9.9 -9.999 -99.9 -99.99 -9.99
2019/07/14 07:24 PDT    1.04   1.17    9  250   13  54.3  60.8 1015.5 -9.9 -9.999 -99.9 -99.99 -9.99
2019/07/14 07:30 PDT    1.14   1.32   11  242   17  54.1  60.8 1015.5 -9.9 -9.999 -99.9 -99.99 -9.99
2019/07/14 07:36 PDT    1.24   1.44    9  241   16  54.1  60.8 1015.6 -9.9 -9.999 -99.9 -99.99 -9.99
2019/07/14 07:42 PDT    1.34   1.54    8  244   17  54.3  60.8 1015.6 -9.9 -9.999 -99.9 -99.99 -9.99
2019/07/14 07:48 PDT    1.45   1.64    8  240   12  54.1  60.8 1015.7 -9.9 -9.999 -99.9 -99.99 -9.99
2019/07/14 07:54 PDT    1.55   1.71    6  244   14  54.1  60.8 1015.9 -9.9 -9.999 -99.9 -99.99 -9.99
2019/07/14 08:00 PDT    1.66   1.80    7  241   13  53.8  60.8 1016.0 -9.9 -9.999 -99.9 -99.99 -9.99
2019/07/14 08:06 PDT    1.77   1.95    6  237   14  54.0  60.8 1016.1 -9.9 -9.999 -99.9 -99.99 -9.99
2019/07/14 08:12 PDT    1.87   2.09    7  241   16  54.0  60.8 1016.2 -9.9 -9.999 -99.9 -99.99 -9.99
2019/07/14 08:18 PDT    1.98   2.23    6  239   12  53.8  60.8 1016.3 -9.9 -9.999 -99.9 -99.99 -9.99
2019/07/14 08:24 PDT    2.10   2.36    6  232   11  53.8  60.8 1016.3 -9.9 -9.999 -99.9 -99.99 -9.99
2019/07/14 08:30 PDT    2.21   2.46    7  227   13  53.8  60.8 1016.4 -9.9 -9.999 -99.9 -99.99 -9.99
2019/07/14 08:36 PDT    2.32   2.53   10  235   15  53.6  61.0 1016.5 -9.9 -9.999 -99.9 -99.99 -9.99
2019/07/14 08:42 PDT    2.43   2.58    7  224   11  53.8  61.0 1016.5 -9.9 -9.999 -99.9 -99.99 -9.99
2019/07/14 08:48 PDT    2.54   2.66    7  232   15  53.6  61.0 1016.6 -9.9 -9.999 -99.9 -99.99 -9.99
2019/07/14 08:54 PDT    2.65   2.77    7  236   13  53.6  60.8 1016.7 -9.9 -9.999 -99.9 -99.99 -9.99
2019/07/14 09:00 PDT    2.77   2.90    5  246   12  53.4  60.8 1016.7 -9.9 -9.999 -99.9 -99.99 -9.99
2019/07/14 09:06 PDT    2.88   3.03    6  223   11  53.6  61.0 1016.7 -9.9 -9.999 -99.9 -99.99 -9.99
2019/07/14 09:12 PDT    2.99   3.13    8  226   11  53.6  60.8 1016.8 -9.9 -9.999 -99.9 -99.99 -9.99
2019/07/14 09:18 PDT    3.10   3.26    6  228   13  53.8  60.8 1016.8 -9.9 -9.999 -99.9 -99.99 -9.99
2019/07/14 09:24 PDT    3.20   3.37    3  206    6  54.0  60.8 1016.9 -9.9 -9.999 -99.9 -99.99 -9.99
2019/07/14 09:30 PDT    3.31   3.48    3  223    9  54.1  60.8 1017.0 -9.9 -9.999 -99.9 -99.99 -9.99
2019/07/14 09:36 PDT    3.41   3.58    8  246   16  54.0  60.8 1017.0 -9.9 -9.999 -99.9 -99.99 -9.99
2019/07/14 09:42 PDT    3.51   3.67    9  240   15  54.0  60.8 1017.0 -9.9 -9.999 -99.9 -99.99 -9.99
2019/07/14 09:48 PDT    3.61   3.74    8  235   18  54.1  60.4 1017.0 -9.9 -9.999 -99.9 -99.99 -9.99
2019/07/14 09:54 PDT    3.71   3.83    6  248   14  54.1  60.3 1017.1 -9.9 -9.999 -99.9 -99.99 -9.99
2019/07/14 10:00 PDT    3.80   3.90    6  240   10  54.3  59.7 1017.2 -9.9 -9.999 -99.9 -99.99 -9.99
2019/07/14 10:06 PDT    3.89   3.99    5  253   13  54.3  59.5 1017.2 -9.9 -9.999 -99.9 -99.99 -9.99
2019/07/14 10:12 PDT    3.97   4.03    6  249   15  54.3  59.5 1017.2 -9.9 -9.999 -99.9 -99.99 -9.99
2019/07/14 10:18 PDT    4.05   4.12   10  241   16  54.3  59.5 1017.2 -9.9 -9.999 -99.9 -99.99 -9.99
2019/07/14 10:24 PDT    4.13   4.18    9  247   14  54.3  59.4 1017.2 -9.9 -9.999 -99.9 -99.99 -9.99
2019/07/14 10:30 PDT    4.21   4.20   12  245   17  54.3  59.4 1017.1 -9.9 -9.999 -99.9 -99.99 -9.99
2019/07/14 10:36 PDT    4.27   4.26   10  244   18  54.5  59.4 1017.2 -9.9 -9.999 -99.9 -99.99 -9.99
2019/07/14 10:42 PDT    4.34   4.31    9  259   19  54.5  59.4 1017.2 -9.9 -9.999 -99.9 -99.99 -9.99
2019/07/14 10:48 PDT    4.40   4.38    8  248   15  54.7  59.4 1017.3 -9.9 -9.999 -99.9 -99.99 -9.99
2019/07/14 10:54 PDT    4.45   4.44    9  251   14  54.9  59.4 1017.3 -9.9 -9.999 -99.9 -99.99 -9.99
2019/07/14 11:00 PDT    4.50   4.49    6  237   13  55.0  59.4 1017.4 -9.9 -9.999 -99.9 -99.99 -9.99
2019/07/14 11:06 PDT    4.54   4.57    5  255   15  55.0  59.4 1017.5 -9.9 -9.999 -99.9 -99.99 -9.99
2019/07/14 11:12 PDT    4.58   4.57    5  256   16  55.0  59.4 1017.5 -9.9 -9.999 -99.9 -99.99 -9.99
2019/07/14 11:18 PDT    4.61   4.57    8  260   14  55.0  59.4 1017.5 -9.9 -9.999 -99.9 -99.99 -9.99
2019/07/14 11:24 PDT    4.64   4.60    7  236   13  55.2  59.4 1017.6 -9.9 -9.999 -99.9 -99.99 -9.99
2019/07/14 11:30 PDT    4.66   4.61    6  262   11  55.4  59.4 1017.6 -9.9 -9.999 -99.9 -99.99 -9.99
2019/07/14 11:36 PDT    4.68   4.62    9  258   14  55.4  59.4 1017.6 -9.9 -9.999 -99.9 -99.99 -9.99
2019/07/14 11:42 PDT    4.69   4.67    8  259   16  55.2  59.4 1017.6 -9.9 -9.999 -99.9 -99.99 -9.99
2019/07/14 11:48 PDT    4.70   4.69    6  249   17  55.4  59.4 1017.6 -9.9 -9.999 -99.9 -99.99 -9.99
2019/07/14 11:54 PDT    4.70   4.66    7  244   14  55.4  59.4 1017.6 -9.9 -9.999 -99.9 -99.99 -9.99
2019/07/14 12:00 PDT    4.69   4.64    9  272   15  55.6  59.4 1017.6 -9.9 -9.999 -99.9 -99.99 -9.99
2019/07/14 12:06 PDT    4.68   4.64    8  263   14  55.6  59.4 1017.6 -9.9 -9.999 -99.9 -99.99 -9.99
2019/07/14 12:12 PDT    4.67   4.63   10  242   15  55.6  59.4 1017.6 -9.9 -9.999 -99.9 -99.99 -9.99
2019/07/14 12:18 PDT    4.64   4.62    9  235   17  55.8  59.4 1017.7 -9.9 -9.999 -99.9 -99.99 -9.99
2019/07/14 12:24 PDT    4.62   4.62   10  247   16  55.8  59.4 1017.7 -9.9 -9.999 -99.9 -99.99 -9.99
2019/07/14 12:30 PDT    4.59   4.56   11  236   16  55.9  59.4 1017.8 -9.9 -9.999 -99.9 -99.99 -9.99
2019/07/14 12:36 PDT    4.56   4.51   10  240   17  55.8  59.4 1017.8 -9.9 -9.999 -99.9 -99.99 -9.99
2019/07/14 12:42 PDT    4.52   4.49    8  252   14  55.9  59.2 1017.8 -9.9 -9.999 -99.9 -99.99 -9.99
2019/07/14 12:48 PDT    4.47   4.44   11  261   19  55.9  58.6 1017.8 -9.9 -9.999 -99.9 -99.99 -9.99
2019/07/14 12:54 PDT    4.43   4.38   10  248   17  55.9  58.3 1017.7 -9.9 -9.999 -99.9 -99.99 -9.99
2019/07/14 13:00 PDT    4.38   4.33    8  254   14  56.3  58.1 1017.7 -9.9 -9.999 -99.9 -99.99 -9.99
2019/07/14 13:06 PDT    4.33   4.29   11  258   17  55.9  58.5 1017.7 -9.9 -9.999 -99.9 -99.99 -9.99
2019/07/14 13:12 PDT    4.27   4.30   11  248   19  55.9  58.3 1017.7 -9.9 -9.999 -99.9 -99.99 -9.99
2019/07/14 13:18 PDT    4.21   4.27   12  257   20  55.9  58.3 1017.6 -9.9 -9.999 -99.9 -99.99 -9.99
2019/07/14 13:24 PDT    4.15   4.24   12  249   19  55.9  58.3 1017.6 -9.9 -9.999 -99.9 -99.99 -9.99
2019/07/14 13:30 PDT    4.09   4.20    8  250   20  56.3  58.3 1017.6 -9.9 -9.999 -99.9 -99.99 -9.99
2019/07/14 13:36 PDT    4.02   4.12   10  245   15  56.3  58.3 1017.6 -9.9 -9.999 -99.9 -99.99 -9.99
2019/07/14 13:42 PDT    3.96   4.06    5  246   16  56.7  58.3 1017.7 -9.9 -9.999 -99.9 -99.99 -9.99
2019/07/14 13:48 PDT    3.89   4.03    9  258   17  56.5  58.3 1017.7 -9.9 -9.999 -99.9 -99.99 -9.99
2019/07/14 13:54 PDT    3.83   3.96    8  259   14  56.5  58.1 1017.7 -9.9 -9.999 -99.9 -99.99 -9.99
2019/07/14 14:00 PDT    3.76   3.93    7  242   15  56.7  58.1 1017.7 -9.9 -9.999 -99.9 -99.99 -9.99
2019/07/14 14:06 PDT    3.69   3.89    5  245   15  56.8  58.1 1017.7 -9.9 -9.999 -99.9 -99.99 -9.99
2019/07/14 14:12 PDT    3.63   3.83    8  225   15  56.7  58.1 1017.7 -9.9 -9.999 -99.9 -99.99 -9.99
2019/07/14 14:18 PDT    3.56   3.77    4  228    8  57.0  58.1 1017.8 -9.9 -9.999 -99.9 -99.99 -9.99
2019/07/14 14:24 PDT    3.50   3.71    8  227   14  56.8  58.1 1017.7 -9.9 -9.999 -99.9 -99.99 -9.99
2019/07/14 14:30 PDT    3.44   3.64    7  224   16  57.0  58.1 1017.6 -9.9 -9.999 -99.9 -99.99 -9.99
2019/07/14 14:36 PDT    3.38   3.55    8  240   17  57.0  58.1 1017.6 -9.9 -9.999 -99.9 -99.99 -9.99
2019/07/14 14:42 PDT    3.32   3.49    6  245   15  57.0  58.1 1017.5 -9.9 -9.999 -99.9 -99.99 -9.99
2019/07/14 14:48 PDT    3.27   3.41    6  247   14  57.2  58.3 1017.5 -9.9 -9.999 -99.9 -99.99 -9.99
2019/07/14 14:54 PDT    3.21   3.34    8  233   13  57.4  58.3 1017.4 -9.9 -9.999 -99.9 -99.99 -9.99
2019/07/14 15:00 PDT    3.16   3.23    9  235   16  57.2  58.3 1017.4 -9.9 -9.999 -99.9 -99.99 -9.99
2019/07/14 15:06 PDT    3.12   3.16    9  246   18  57.2  58.3 1017.3 -9.9 -9.999 -99.9 -99.99 -9.99
2019/07/14 15:12 PDT    3.07   3.11    9  248   15  57.4  58.3 1017.2 -9.9 -9.999 -99.9 -99.99 -9.99
2019/07/14 15:18 PDT    3.03   3.06    6  249   13  57.4  58.3 1017.2 -9.9 -9.999 -99.9 -99.99 -9.99
2019/07/14 15:24 PDT    3.00   3.06    9  244   17  57.4  58.3 1017.2 -9.9 -9.999 -99.9 -99.99 -9.99
2019/07/14 15:30 PDT    2.96   3.05    7  235   15  57.6  58.5 1017.3 -9.9 -9.999 -99.9 -99.99 -9.99
2019/07/14 15:36 PDT    2.93   3.03    7  237   13  57.6  58.6 1017.2 -9.9 -9.999 -99.9 -99.99 -9.99
2019/07/14 15:42 PDT    2.91   2.96    8  248   15  57.6  59.2 1017.2 -9.9 -9.999 -99.9 -99.99 -9.99
2019/07/14 15:48 PDT    2.89   2.92   10  241   17  57.6  59.2 1017.1 -9.9 -9.999 -99.9 -99.99 -9.99
2019/07/14 15:54 PDT    2.87   2.85   11  234   19  57.4  59.0 1017.2 -9.9 -9.999 -99.9 -99.99 -9.99
2019/07/14 16:00 PDT    2.86   2.80   11  238   17  57.4  59.0 1017.2 -9.9 -9.999 -99.9 -99.99 -9.99
2019/07/14 16:06 PDT    2.85   2.79   12  234   17  57.2  59.5 1017.0 -9.9 -9.999 -99.9 -99.99 -9.99
2019/07/14 16:12 PDT    2.84   2.76   11  234   16  57.2  59.5 1017.0 -9.9 -9.999 -99.9 -99.99 -9.99
2019/07/14 16:18 PDT    2.84   2.79   11  239   17  57.2  59.5 1017.0 -9.9 -9.999 -99.9 -99.99 -9.99
2019/07/14 16:24 PDT    2.85   2.83   11  236   18  57.0  59.5 1016.9 -9.9 -9.999 -99.9 -99.99 -9.99
2019/07/14 16:30 PDT    2.86   2.88   12  241   19  56.8  59.5 1016.8 -9.9 -9.999 -99.9 -99.99 -9.99
2019/07/14 16:36 PDT    2.87   2.91   11  244   17  57.2  59.7 1016.8 -9.9 -9.999 -99.9 -99.99 -9.99
2019/07/14 16:42 PDT    2.89   2.88   12  234   19  57.2  59.7 1016.7 -9.9 -9.999 -99.9 -99.99 -9.99
2019/07/14 16:48 PDT    2.91   2.89   12  245   19  57.4  59.9 1016.6 -9.9 -9.999 -99.9 -99.99 -9.99
2019/07/14 16:54 PDT    2.94   2.87   15  244   20  57.4  59.9 1016.5 -9.9 -9.999 -99.9 -99.99 -9.99
2019/07/14 17:00 PDT    2.97   2.87   13  243   23  57.4  59.9 1016.5 -9.9 -9.999 -99.9 -99.99 -9.99
2019/07/14 17:06 PDT    3.00   2.90   15  241   21  57.6  59.9 1016.4 -9.9 -9.999 -99.9 -99.99 -9.99
2019/07/14 17:12 PDT    3.04   2.96   17  242   20  57.7  59.9 1016.4 -9.9 -9.999 -99.9 -99.99 -9.99
2019/07/14 17:18 PDT    3.08   3.00   15  238   19  57.9  59.9 1016.3 -9.9 -9.999 -99.9 -99.99 -9.99
2019/07/14 17:24 PDT    3.13   3.03   12  240   21  58.1  59.9 1016.3 -9.9 -9.999 -99.9 -99.99 -9.99
2019/07/14 17:30 PDT    3.18   3.12   11  242   19  58.3  59.9 1016.3 -9.9 -9.999 -99.9 -99.99 -9.99
2019/07/14 17:36 PDT    3.23   3.18   13  239   21  58.3  59.9 1016.3 -9.9 -9.999 -99.9 -99.99 -9.99
2019/07/14 17:42 PDT    3.29   3.25   12  240   20  58.6  59.9 1016.2 -9.9 -9.999 -99.9 -99.99 -9.99
2019/07/14 17:48 PDT    3.35   3.31   14  248   22  58.5  59.9 1016.1 -9.9 -9.999 -99.9 -99.99 -9.99
2019/07/14 17:54 PDT    3.42   3.35   11  240   22  58.5  59.9 1016.1 -9.9 -9.999 -99.9 -99.99 -9.99
2019/07/14 18:00 PDT    3.49   3.38    9  246   21  58.6  59.7 1016.1 -9.9 -9.999 -99.9 -99.99 -9.99
2019/07/14 18:06 PDT    3.56   3.40   12  242   19  58.8  59.4 1016.0 -9.9 -9.999 -99.9 -99.99 -9.99
2019/07/14 18:12 PDT    3.63   3.45   15  240   19  59.0  59.0 1015.9 -9.9 -9.999 -99.9 -99.99 -9.99
2019/07/14 18:18 PDT    3.71   3.57   15  239   22  59.2  58.8 1015.8 -9.9 -9.999 -99.9 -99.99 -9.99
2019/07/14 18:24 PDT    3.79   3.65   12  245   20  59.4  59.0 1015.8 -9.9 -9.999 -99.9 -99.99 -9.99
2019/07/14 18:30 PDT    3.87   3.76    9  248   17  59.5  59.0 1015.9 -9.9 -9.999 -99.9 -99.99 -9.99
2019/07/14 18:36 PDT    3.95   3.82   14  246   18  59.7  59.0 1015.8 -9.9 -9.999 -99.9 -99.99 -9.99
2019/07/14 18:42 PDT    4.03   3.88   15  240   21  59.7  59.2 1015.8 -9.9 -9.999 -99.9 -99.99 -9.99
2019/07/14 18:48 PDT    4.12   3.96   14  245   19  59.7  59.2 1015.8 -9.9 -9.999 -99.9 -99.99 -9.99
2019/07/14 18:54 PDT    4.20   4.05   15  243   21  59.5  59.2 1015.8 -9.9 -9.999 -99.9 -99.99 -9.99
2019/07/14 19:00 PDT    4.29   4.13   14  244   20  59.5  59.2 1015.8 -9.9 -9.999 -99.9 -99.99 -9.99
2019/07/14 19:06 PDT    4.38   4.21   15  240   21  59.4  59.2 1015.8 -9.9 -9.999 -99.9 -99.99 -9.99
2019/07/14 19:12 PDT    4.47   4.31   14  245   21  59.5  59.0 1015.8 -9.9 -9.999 -99.9 -99.99 -9.99
2019/07/14 19:18 PDT    4.55   4.41   15  240   19  59.7  59.0 1015.8 -9.9 -9.999 -99.9 -99.99 -9.99
2019/07/14 19:24 PDT    4.64   4.49   14  243   19  59.7  59.0 1015.8 -9.9 -9.999 -99.9 -99.99 -9.99
2019/07/14 19:30 PDT    4.73   4.61   12  245   20  59.9  59.0 1015.8 -9.9 -9.999 -99.9 -99.99 -9.99
2019/07/14 19:36 PDT    4.82   4.72   13  244   18  60.1  59.0 1015.8 -9.9 -9.999 -99.9 -99.99 -9.99
2019/07/14 19:42 PDT    4.91   4.79   13  242   19  60.1  59.0 1015.8 -9.9 -9.999 -99.9 -99.99 -9.99
2019/07/14 19:48 PDT    5.00   4.83   13  241   19  60.3  59.0 1015.8 -9.9 -9.999 -99.9 -99.99 -9.99
2019/07/14 19:54 PDT    5.08   4.91   13  241   19  60.4  59.0 1015.8 -9.9 -9.999 -99.9 -99.99 -9.99
2019/07/14 20:00 PDT    5.17   5.00   10  242   16  60.3  59.0 1015.8 -9.9 -9.999 -99.9 -99.99 -9.99
2019/07/14 20:06 PDT    5.25   5.06   11  241   17  60.3  58.8 1015.8 -9.9 -9.999 -99.9 -99.99 -9.99
2019/07/14 20:12 PDT    5.34   5.17    9  231   16  60.1  58.8 1015.8 -9.9 -9.999 -99.9 -99.99 -9.99
2019/07/14 20:18 PDT    5.42   5.29    9  228   14  59.9  58.8 1015.7 -9.9 -9.999 -99.9 -99.99 -9.99
2019/07/14 20:24 PDT    5.50   5.36    9  229   15  59.9  58.8 1015.8 -9.9 -9.999 -99.9 -99.99 -9.99
2019/07/14 20:30 PDT    5.58   5.44    9  226   17  59.9  58.8 1015.8 -9.9 -9.999 -99.9 -99.99 -9.99
2019/07/14 20:36 PDT    5.66   5.53    9  223   16  59.9  58.8 1015.8 -9.9 -9.999 -99.9 -99.99 -9.99
2019/07/14 20:42 PDT    5.73   5.63   11  230   15  59.9  58.8 1015.6 -9.9 -9.999 -99.9 -99.99 -9.99
2019/07/14 20:48 PDT    5.80   5.72   10  223   19  59.9  58.8 1015.6 -9.9 -9.999 -99.9 -99.99 -9.99
2019/07/14 20:54 PDT    5.88   5.77    8  223   14  59.9  58.8 1015.7 -9.9 -9.999 -99.9 -99.99 -9.99
2019/07/14 21:00 PDT    5.94   5.81    5  204   13  59.7  58.8 1015.8 -9.9 -9.999 -99.9 -99.99 -9.99
2019/07/14 21:06 PDT    6.01   5.83    2  126   11  59.7  58.8 1015.9 -9.9 -9.999 -99.9 -99.99 -9.99
2019/07/14 21:12 PDT    6.07   5.91    2  133    6  59.7  58.8 1016.0 -9.9 -9.999 -99.9 -99.99 -9.99
2019/07/14 21:18 PDT    6.13   5.99    5   54    7  59.7  58.8 1016.0 -9.9 -9.999 -99.9 -99.99 -9.99
2019/07/14 21:24 PDT    6.19   6.05    2  152    5  59.5  58.1 1016.2 -9.9 -9.999 -99.9 -99.99 -9.99
2019/07/14 21:30 PDT    6.24   6.14    3  293    5  59.5  57.7 1016.3 -9.9 -9.999 -99.9 -99.99 -9.99
2019/07/14 21:36 PDT    6.29   6.21    2   55    3  59.5  57.4 1016.3 -9.9 -9.999 -99.9 -99.99 -9.99
2019/07/14 21:42 PDT    6.33   6.25    2  173    4  59.4  57.2 1016.3 -9.9 -9.999 -99.9 -99.99 -9.99
2019/07/14 21:48 PDT    6.37   6.30    3  166    6  59.2  57.2 1016.3 -9.9 -9.999 -99.9 -99.99 -9.99
2019/07/14 21:54 PDT    6.40   6.32    8  202    9  59.2  57.2 1016.3 -9.9 -9.999 -99.9 -99.99 -9.99
2019/07/14 22:00 PDT    6.43   6.36    9  221   11  59.0  57.0 1016.2 -9.9 -9.999 -99.9 -99.99 -9.99
2019/07/14 22:06 PDT    6.45   6.40   11  219   15  59.2  56.8 1016.3 -9.9 -9.999 -99.9 -99.99 -9.99
2019/07/14 22:12 PDT    6.47   6.43   10  209   15  59.0  56.8 1016.3 -9.9 -9.999 -99.9 -99.99 -9.99
2019/07/14 22:18 PDT    6.49   6.41    9  210   14  58.8  56.8 1016.3 -9.9 -9.999 -99.9 -99.99 -9.99
2019/07/14 22:24 PDT    6.49   6.40    9  212   14  58.8  56.8 1016.3 -9.9 -9.999 -99.9 -99.99 -9.99
2019/07/14 22:30 PDT    6.49   6.42    9  213   12  58.8  56.8 1016.4 -9.9 -9.999 -99.9 -99.99 -9.99
2019/07/14 22:36 PDT    6.49   6.41    9  213   14  58.6  56.8 1016.4 -9.9 -9.999 -99.9 -99.99 -9.99
2019/07/14 22:42 PDT    6.47   6.40    9  215   12  58.5  56.8 1016.4 -9.9 -9.999 -99.9 -99.99 -9.99
2019/07/14 22:48 PDT    6.45   6.38    8  209   13  58.3  56.8 1016.5 -9.9 -9.999 -99.9 -99.99 -9.99
2019/07/14 22:54 PDT    6.43   6.36    9  215   13  58.3  56.8 1016.5 -9.9 -9.999 -99.9 -99.99 -9.99
2019/07/14 23:00 PDT    6.40   6.32   10  215   13  57.9  56.8 1016.5 -9.9 -9.999 -99.9 -99.99 -9.99
2019/07/14 23:06 PDT    6.36   6.30    9  215   13  57.7  56.8 1016.5 -9.9 -9.999 -99.9 -99.99 -9.99
2019/07/14 23:12 PDT    6.31   6.25    8  211   14  57.7  56.8 1016.4 -9.9 -9.999 -99.9 -99.99 -9.99
2019/07/14 23:18 PDT    6.26   6.20    8  211   12  57.6  56.8 1016.4 -9.9 -9.999 -99.9 -99.99 -9.99
2019/07/14 23:24 PDT    6.20   6.15    7  213   11  57.6  56.8 1016.4 -9.9 -9.999 -99.9 -99.99 -9.99
2019/07/14 23:30 PDT    6.13   6.10    7  209   10  57.6  56.8 1016.5 -9.9 -9.999 -99.9 -99.99 -9.99
2019/07/14 23:36 PDT    6.05   6.04    5  216    9  57.6  56.8 1016.6 -9.9 -9.999 -99.9 -99.99 -9.99
2019/07/14 23:42 PDT    5.97   5.98    3  244    7  57.4  56.7 1016.6 -9.9 -9.999 -99.9 -99.99 -9.99
2019/07/14 23:48 PDT    5.89   5.88    2  152    4  57.4  56.7 1016.6 -9.9 -9.999 -99.9 -99.99 -9.99
2019/07/14 23:54 PDT    5.79   5.78    4  162    5  57.2  56.7 1016.6 -9.9 -9.999 -99.9 -99.99 -9.99
2019/07/15 00:00 PDT    5.69   5.66    4  200    7  57.2  56.7 1016.7 -9.9 -9.999 -99.9 -99.99 -9.99
2019/07/15 00:06 PDT    5.58   5.59    2  187    5  57.4  56.7 1016.7 -9.9 -9.999 -99.9 -99.99 -9.99
2019/07/15 00:12 PDT    5.47   5.44    1  161    3  57.2  56.5 1016.7 -9.9 -9.999 -99.9 -99.99 -9.99
2019/07/15 00:18 PDT    5.35   5.35    3  206    5  57.0  56.5 1016.7 -9.9 -9.999 -99.9 -99.99 -9.99
2019/07/15 00:24 PDT    5.23   5.21    2  214    6  57.0  56.3 1016.6 -9.9 -9.999 -99.9 -99.99 -9.99
2019/07/15 00:30 PDT    5.10   5.08    3  199    5  56.8  56.3 1016.6 -9.9 -9.999 -99.9 -99.99 -9.99
2019/07/15 00:36 PDT    4.96   4.98    2  206    4  56.7  56.3 1016.6 -9.9 -9.999 -99.9 -99.99 -9.99
2019/07/15 00:42 PDT    4.82   4.84    4  205    5  56.7  56.3 1016.6 -9.9 -9.999 -99.9 -99.99 -9.99
2019/07/15 00:48 PDT    4.68   4.68    5  208    8  56.7  56.3 1016.5 -9.9 -9.999 -99.9 -99.99 -9.99
2019/07/15 00:54 PDT    4.53   4.53    4  214    7  56.7  56.3 1016.6 -9.9 -9.999 -99.9 -99.99 -9.99
2019/07/15 01:00 PDT    4.38   4.34    4  207    6  56.7  56.3 1016.6 -9.9 -9.999 -99.9 -99.99 -9.99
2019/07/15 01:06 PDT    4.22   4.17    3  212    7  56.5  56.3 1016.5 -9.9 -9.999 -99.9 -99.99 -9.99
2019/07/15 01:12 PDT    4.06   3.99    4  231    7  56.7  56.3 1016.5 -9.9 -9.999 -99.9 -99.99 -9.99
2019/07/15 01:18 PDT    3.90   3.81    1  246    3  56.7  56.3 1016.5 -9.9 -9.999 -99.9 -99.99 -9.99
2019/07/15 01:24 PDT    3.74   3.61    4  202    6  56.5  56.3 1016.5 -9.9 -9.999 -99.9 -99.99 -9.99
2019/07/15 01:30 PDT    3.57   3.44    5  211    8  56.3  56.3 1016.5 -9.9 -9.999 -99.9 -99.99 -9.99
2019/07/15 01:36 PDT    3.40   3.27    4  215    7  56.3  56.3 1016.5 -9.9 -9.999 -99.9 -99.99 -9.99
2019/07/15 01:42 PDT    3.23   3.10    4  213    6  56.3  56.3 1016.5 -9.9 -9.999 -99.9 -99.99 -9.99
2019/07/15 01:48 PDT    3.07   2.94    4  202    7  56.1  56.3 1016.4 -9.9 -9.999 -99.9 -99.99 -9.99
2019/07/15 01:54 PDT    2.90   2.76    3  223    7  56.1  56.3 1016.4 -9.9 -9.999 -99.9 -99.99 -9.99
2019/07/15 02:00 PDT    2.73   2.60    3  207    5  56.1  56.3 1016.4 -9.9 -9.999 -99.9 -99.99 -9.99
2019/07/15 02:06 PDT    2.56   2.39    3  198    7  56.1  56.3 1016.4 -9.9 -9.999 -99.9 -99.99 -9.99
2019/07/15 02:12 PDT    2.39   2.21    3  199    6  55.9  56.3 1016.3 -9.9 -9.999 -99.9 -99.99 -9.99
2019/07/15 02:18 PDT    2.22   2.06    3  246    4  55.9  56.3 1016.3 -9.9 -9.999 -99.9 -99.99 -9.99
2019/07/15 02:24 PDT    2.06   1.91    2  224    5  55.9  56.3 1016.2 -9.9 -9.999 -99.9 -99.99 -9.99
2019/07/15 02:30 PDT    1.90   1.80    2  249    5  55.9  56.3 1016.2 -9.9 -9.999 -99.9 -99.99 -9.99
2019/07/15 02:36 PDT    1.74   1.68    1  307    2  55.9  56.3 1016.2 -9.9 -9.999 -99.9 -99.99 -9.99
2019/07/15 02:42 PDT    1.58   1.53    1  224    5  55.8  56.3 1016.2 -9.9 -9.999 -99.9 -99.99 -9.99
2019/07/15 02:48 PDT    1.43   1.37    3  223    6  55.8  56.3 1016.1 -9.9 -9.999 -99.9 -99.99 -9.99
2019/07/15 02:54 PDT    1.28   1.26    4  213    6  55.8  56.3 1016.0 -9.9 -9.999 -99.9 -99.99 -9.99
2019/07/15 03:00 PDT    1.14   1.13    3  228    6  55.6  56.3 1016.0 -9.9 -9.999 -99.9 -99.99 -9.99
2019/07/15 03:06 PDT    1.00   0.98    4  242    8  55.6  56.3 1016.0 -9.9 -9.999 -99.9 -99.99 -9.99
2019/07/15 03:12 PDT    0.86   0.87    4  209    7  55.6  56.5 1016.0 -9.9 -9.999 -99.9 -99.99 -9.99
2019/07/15 03:18 PDT    0.73   0.75    4  215    5  55.6  56.5 1016.1 -9.9 -9.999 -99.9 -99.99 -9.99
2019/07/15 03:24 PDT    0.61   0.63    4  193    6  55.6  56.5 1016.0 -9.9 -9.999 -99.9 -99.99 -9.99
2019/07/15 03:30 PDT    0.49   0.54    5  194    6  55.6  56.5 1016.1 -9.9 -9.999 -99.9 -99.99 -9.99
2019/07/15 03:36 PDT    0.37   0.41    4  184    7  55.6  56.5 1016.1 -9.9 -9.999 -99.9 -99.99 -9.99
2019/07/15 03:42 PDT    0.26   0.27    4  156    7  55.8  56.5 1016.1 -9.9 -9.999 -99.9 -99.99 -9.99
2019/07/15 03:48 PDT    0.16   0.17    3  199    7  55.6  56.5 1016.0 -9.9 -9.999 -99.9 -99.99 -9.99
2019/07/15 03:54 PDT    0.06   0.07    4  207    6  55.6  56.5 1016.0 -9.9 -9.999 -99.9 -99.99 -9.99
2019/07/15 04:00 PDT   -0.03  -0.02    4  217    7  55.4  56.5 1015.9 -9.9 -9.999 -99.9 -99.99 -9.99
2019/07/15 04:06 PDT   -0.11  -0.09    5  210    7  55.4  56.5 1016.0 -9.9 -9.999 -99.9 -99.99 -9.99
2019/07/15 04:12 PDT   -0.19  -0.20    5  191    7  55.4  56.5 1015.9 -9.9 -9.999 -99.9 -99.99 -9.99
2019/07/15 04:18 PDT   -0.26  -0.28    4  206    9  55.2  56.5 1016.0 -9.9 -9.999 -99.9 -99.99 -9.99
2019/07/15 04:24 PDT   -0.33  -0.34    4  204    6  55.2  56.5 1016.0 -9.9 -9.999 -99.9 -99.99 -9.99
2019/07/15 04:30 PDT   -0.39  -0.41    5  206    7  55.2  56.7 1016.0 -9.9 -9.999 -99.9 -99.99 -9.99
2019/07/15 04:36 PDT   -0.44  -0.47    4  203    6  55.2  56.7 1016.0 -9.9 -9.999 -99.9 -99.99 -9.99
2019/07/15 04:42 PDT   -0.49  -0.51    3  198    6  55.2  56.7 1016.1 -9.9 -9.999 -99.9 -99.99 -9.99
2019/07/15 04:48 PDT   -0.53  -0.58    3  198    5  55.2  56.7 1016.0 -9.9 -9.999 -99.9 -99.99 -9.99
2019/07/15 04:54 PDT   -0.57  -0.61    3  202    6  55.2  56.8 1016.0 -9.9 -9.999 -99.9 -99.99 -9.99
2019/07/15 05:00 PDT   -0.59  -0.63    4  206    8  55.2  57.0 1016.1 -9.9 -9.999 -99.9 -99.99 -9.99
2019/07/15 05:06 PDT   -0.62  -0.68    3  205    7  55.4  57.4 1016.2 -9.9 -9.999 -99.9 -99.99 -9.99
2019/07/15 05:12 PDT   -0.63  -0.68    3  196    5  55.4  57.6 1016.1 -9.9 -9.999 -99.9 -99.99 -9.99
2019/07/15 05:18 PDT   -0.64  -0.70    5  191    8  55.4  57.9 1016.2 -9.9 -9.999 -99.9 -99.99 -9.99
2019/07/15 05:24 PDT   -0.65  -0.73    4  190    7  55.4  58.1 1016.2 -9.9 -9.999 -99.9 -99.99 -9.99
2019/07/15 05:30 PDT   -0.65  -0.71    3  193    6  55.4  58.3 1016.2 -9.9 -9.999 -99.9 -99.99 -9.99
2019/07/15 05:36 PDT   -0.64  -0.67    3  220    4  55.4  58.3 1016.2 -9.9 -9.999 -99.9 -99.99 -9.99
2019/07/15 05:42 PDT   -0.63  -0.65    4  210    9  55.4  58.3 1016.2 -9.9 -9.999 -99.9 -99.99 -9.99
2019/07/15 05:48 PDT   -0.61  -0.63    3  231    6  55.4  58.5 1016.3 -9.9 -9.999 -99.9 -99.99 -9.99
2019/07/15 05:54 PDT   -0.58  -0.60    3  219    7  55.4  58.6 1016.3 -9.9 -9.999 -99.9 -99.99 -9.99
2019/07/15 06:00 PDT   -0.55  -0.56    4  211    6  55.4  58.6 1016.4 -9.9 -9.999 -99.9 -99.99 -9.99
2019/07/15 06:06 PDT   -0.52  -0.55    4  235    7  55.4  58.5 1016.4 -9.9 -9.999 -99.9 -99.99 -9.99
2019/07/15 06:12 PDT   -0.48  -0.57    4  197    7  55.4  58.6 1016.5 -9.9 -9.999 -99.9 -99.99 -9.99
2019/07/15 06:18 PDT   -0.44  -0.56    5  210    9  55.6  58.6 1016.4 -9.9 -9.999 -99.9 -99.99 -9.99
2019/07/15 06:24 PDT   -0.39  -0.53    3  219    6  55.8  59.4 1016.4 -9.9 -9.999 -99.9 -99.99 -9.99
2019/07/15 06:30 PDT   -0.33  -0.49    4  211    5  55.9  59.4 1016.4 -9.9 -9.999 -99.9 -99.99 -9.99
2019/07/15 06:36 PDT   -0.28  -0.43    3  225    5  56.3  59.4 1016.4 -9.9 -9.999 -99.9 -99.99 -9.99
2019/07/15 06:42 PDT   -0.22  -0.32    2  216    6  56.7  59.4 1016.5 -9.9 -9.999 -99.9 -99.99 -9.99
2019/07/15 06:48 PDT   -0.15  -0.26    5  215    6  56.8  59.4 1016.5 -9.9 -9.999 -99.9 -99.99 -9.99
2019/07/15 06:54 PDT   -0.08  -0.19    2  211    5  57.2  59.2 1016.5 -9.9 -9.999 -99.9 -99.99 -9.99
2019/07/15 07:00 PDT   -0.01  -0.06    4  218    7  57.6  59.5 1016.6 -9.9 -9.999 -99.9 -99.99 -9.99
2019/07/15 07:06 PDT    0.07   0.05    3  233    9  57.7  59.9 1016.6 -9.9 -9.999 -99.9 -99.99 -9.99
2019/07/15 07:12 PDT    0.15   0.14    6  215    9  57.7  60.6 1016.6 -9.9 -9.999 -99.9 -99.99 -9.99
2019/07/15 07:18 PDT    0.23   0.19    5  250   10  57.9  61.0 1016.6 -9.9 -9.999 -99.9 -99.99 -9.99
2019/07/15 07:24 PDT    0.31   0.28    6  230    9  57.9  61.2 1016.6 -9.9 -9.999 -99.9 -99.99 -9.99
2019/07/15 07:30 PDT    0.40   0.36    4  222    9  58.1  61.2 1016.6 -9.9 -9.999 -99.9 -99.99 -9.99
2019/07/15 07:36 PDT    0.49   0.46    6  226    8  58.5  61.3 1016.7 -9.9 -9.999 -99.9 -99.99 -9.99
2019/07/15 07:42 PDT    0.58   0.58    2  196    7  59.2  61.3 1016.7 -9.9 -9.999 -99.9 -99.99 -9.99
2019/07/15 07:48 PDT    0.68   0.69    1   40    3  60.3  61.3 1016.8 -9.9 -9.999 -99.9 -99.99 -9.99
2019/07/15 07:54 PDT    0.78   0.80    3  178    5  60.3  61.3 1016.8 -9.9 -9.999 -99.9 -99.99 -9.99
2019/07/15 08:00 PDT    0.87   0.91    0    0    3  61.0  61.3 1016.8 -9.9 -9.999 -99.9 -99.99 -9.99
2019/07/15 08:06 PDT    0.98   1.01    3  205    5  61.0  61.3 1016.9 -9.9 -9.999 -99.9 -99.99 -9.99
2019/07/15 08:12 PDT    1.08   1.10    2  198    6  61.0  61.3 1017.0 -9.9 -9.999 -99.9 -99.99 -9.99
2019/07/15 08:18 PDT    1.18   1.21    3  249    6  61.2  61.3 1017.0 -9.9 -9.999 -99.9 -99.99 -9.99
2019/07/15 08:24 PDT    1.29   1.30    3  201    5  61.5  61.3 1017.0 -9.9 -9.999 -99.9 -99.99 -9.99
2019/07/15 08:30 PDT    1.40   1.42    4  223    8  61.3  61.3 1017.0 -9.9 -9.999 -99.9 -99.99 -9.99
2019/07/15 08:36 PDT    1.50   1.58    7  240   10  60.8  61.3 1016.9 -9.9 -9.999 -99.9 -99.99 -9.99
2019/07/15 08:42 PDT    1.61   1.68    4  215    9  61.2  61.3 1016.9 -9.9 -9.999 -99.9 -99.99 -9.99
2019/07/15 08:48 PDT    1.72   1.80    4  265    9  61.5  61.3 1016.9 -9.9 -9.999 -99.9 -99.99 -9.99
2019/07/15 08:54 PDT    1.84   1.91    3  297    7  61.7  61.3 1016.9 -9.9 -9.999 -99.9 -99.99 -9.99
2019/07/15 09:00 PDT    1.95   2.04    5  250    8  61.9  61.3 1016.9 -9.9 -9.999 -99.9 -99.99 -9.99
2019/07/15 09:06 PDT    2.06   2.18    7  242   10  61.2  61.3 1016.8 -9.9 -9.999 -99.9 -99.99 -9.99
2019/07/15 09:12 PDT    2.18   2.30    6  237   13  60.4  61.3 1016.8 -9.9 -9.999 -99.9 -99.99 -9.99
2019/07/15 09:18 PDT    2.29   2.42    4  243    9  60.4  61.3 1016.9 -9.9 -9.999 -99.9 -99.99 -9.99
2019/07/15 09:24 PDT    2.41   2.51    4  240   10  60.6  61.5 1017.0 -9.9 -9.999 -99.9 -99.99 -9.99
2019/07/15 09:30 PDT    2.53   2.60    2  285    6  61.0  61.5 1017.0 -9.9 -9.999 -99.9 -99.99 -9.99
2019/07/15 09:36 PDT    2.64   2.69 -999 -999 -999 -99.9 -99.9 -999.9 -9.9 -9.999 -99.9 -99.99 -9.99
2019/07/15 09:42 PDT    2.76   2.81    4  227    8  62.2  61.5 1017.0 -9.9 -9.999 -99.9 -99.99 -9.99
2019/07/15 09:48 PDT    2.87   2.92    7  219   12  62.4  61.5 1017.0 -9.9 -9.999 -99.9 -99.99 -9.99
2019/07/15 09:54 PDT    2.99   3.05    8  236   12  62.2  61.3 1017.0 -9.9 -9.999 -99.9 -99.99 -9.99
2019/07/15 10:00 PDT    3.10   3.16    7  250   12  61.9  61.5 1017.0 -9.9 -9.999 -99.9 -99.99 -9.99
2019/07/15 10:06 PDT    3.21   3.25    3  265   11  62.2  61.7 1016.9 -9.9 -9.999 -99.9 -99.99 -9.99
2019/07/15 10:12 PDT    3.32   3.34    3  281    7  62.2  61.7 1016.9 -9.9 -9.999 -99.9 -99.99 -9.99
2019/07/15 10:18 PDT    3.43   3.47    7  243   13  61.9  61.5 1017.0 -9.9 -9.999 -99.9 -99.99 -9.99
2019/07/15 10:24 PDT    3.53   3.55    8  238   13  61.5  61.2 1017.1 -9.9 -9.999 -99.9 -99.99 -9.99
2019/07/15 10:30 PDT    3.64   3.63    5  265   11  61.5  60.8 1017.1 -9.9 -9.999 -99.9 -99.99 -9.99
2019/07/15 10:36 PDT    3.74   3.68    8  255   13  61.3  60.4 1017.0 -9.9 -9.999 -99.9 -99.99 -9.99
2019/07/15 10:42 PDT    3.84   3.76   11  242   15  61.0  60.3 1017.0 -9.9 -9.999 -99.9 -99.99 -9.99
2019/07/15 10:48 PDT    3.93   3.84    9  248   16  61.0  60.1 1017.1 -9.9 -9.999 -99.9 -99.99 -9.99
2019/07/15 10:54 PDT    4.02   3.95    9  247   16  60.8  60.1 1017.0 -9.9 -9.999 -99.9 -99.99 -9.99
2019/07/15 11:00 PDT    4.11   4.07   11  240   16  60.4  59.9 1017.0 -9.9 -9.999 -99.9 -99.99 -9.99
2019/07/15 11:06 PDT    4.19   4.16   12  241   19  60.3  59.9 1017.0 -9.9 -9.999 -99.9 -99.99 -9.99
2019/07/15 11:12 PDT    4.27   4.21   13  235   19  60.3  59.9 1017.0 -9.9 -9.999 -99.9 -99.99 -9.99
2019/07/15 11:18 PDT    4.34   4.28   15  241   19  60.3  59.9 1017.0 -9.9 -9.999 -99.9 -99.99 -9.99
2019/07/15 11:24 PDT    4.41   4.34   14  240   20  60.4  59.7 1017.0 -9.9 -9.999 -99.9 -99.99 -9.99
2019/07/15 11:30 PDT    4.48   4.36   11  228   20  61.0  59.7 1017.0 -9.9 -9.999 -99.9 -99.99 -9.99
2019/07/15 11:36 PDT    4.54   4.41   12  248   20  60.8  59.7 1017.0 -9.9 -9.999 -99.9 -99.99 -9.99
2019/07/15 11:42 PDT    4.59   4.47 -999 -999 -999 -99.9 -99.9 -999.9 -9.9 -9.999 -99.9 -99.99 -9.99
2019/07/15 11:48 PDT    4.64   4.52   16  242   22  60.4  59.7 1017.0 -9.9 -9.999 -99.9 -99.99 -9.99
2019/07/15 11:54 PDT    4.68   4.53   13  236   21  60.6  59.7 1017.1 -9.9 -9.999 -99.9 -99.99 -9.99
2019/07/15 12:00 PDT    4.72   4.57   14  242   21  60.6  59.7 1017.0 -9.9 -9.999 -99.9 -99.99 -9.99
2019/07/15 12:06 PDT    4.76   4.59   16  241   21  60.6  59.5 1017.1 -9.9 -9.999 -99.9 -99.99 -9.99
2019/07/15 12:12 PDT    4.78   4.62   17  240   23  60.6  59.7 1017.1 -9.9 -9.999 -99.9 -99.99 -9.99
2019/07/15 12:18 PDT    4.80   4.64   14  241   20  61.0  59.7 1017.1 -9.9 -9.999 -99.9 -99.99 -9.99
2019/07/15 12:24 PDT    4.82   4.64   18  245   24  60.6  59.7 1017.1 -9.9 -9.999 -99.9 -99.99 -9.99
2019/07/15 12:30 PDT    4.83   4.64   14  233   20  61.0  59.7 1017.1 -9.9 -9.999 -99.9 -99.99 -9.99
2019/07/15 12:36 PDT    4.83   4.64   15  249   21  61.0  59.7 1017.0 -9.9 -9.999 -99.9 -99.99 -9.99
2019/07/15 12:42 PDT    4.83   4.66   16  240   23  60.8  59.7 1017.0 -9.9 -9.999 -99.9 -99.99 -9.99
2019/07/15 12:48 PDT    4.83   4.65   19  241   24  60.8  59.7 1016.9 -9.9 -9.999 -99.9 -99.99 -9.99
2019/07/15 12:54 PDT    4.82   4.63   17  234   23  60.8  59.7 1016.8 -9.9 -9.999 -99.9 -99.99 -9.99
2019/07/15 13:00 PDT    4.80   4.65   17  241   22  61.0  59.7 1016.7 -9.9 -9.999 -99.9 -99.99 -9.99
2019/07/15 13:06 PDT    4.78   4.65   17  239   25  61.0  59.7 1016.7 -9.9 -9.999 -99.9 -99.99 -9.99
2019/07/15 13:12 PDT    4.75   4.66   16  245   23  61.2  59.5 1016.7 -9.9 -9.999 -99.9 -99.99 -9.99
2019/07/15 13:18 PDT    4.72   4.66   15  243   22  61.2  59.4 1016.7 -9.9 -9.999 -99.9 -99.99 -9.99
2019/07/15 13:24 PDT    4.68   4.66   15  244   22  61.3  59.0 1016.6 -9.9 -9.999 -99.9 -99.99 -9.99
2019/07/15 13:30 PDT    4.64   4.59   16  242   23  61.5  58.5 1016.5 -9.9 -9.999 -99.9 -99.99 -9.99
2019/07/15 13:36 PDT    4.60   4.56   15  242   24  61.3  58.3 1016.5 -9.9 -9.999 -99.9 -99.99 -9.99
2019/07/15 13:42 PDT    4.55   4.53   16  242   23  61.5  58.3 1016.4 -9.9 -9.999 -99.9 -99.99 -9.99
2019/07/15 13:48 PDT    4.50   4.49   15  240   24  62.1  58.1 1016.3 -9.9 -9.999 -99.9 -99.99 -9.99
2019/07/15 13:54 PDT    4.45   4.44   17  245   25  61.7  58.1 1016.4 -9.9 -9.999 -99.9 -99.99 -9.99
2019/07/15 14:00 PDT    4.39   4.42   15  237   22  61.7  57.9 1016.3 -9.9 -9.999 -99.9 -99.99 -9.99
2019/07/15 14:06 PDT    4.33   4.41   16  241   25  62.1  57.9 1016.2 -9.9 -9.999 -99.9 -99.99 -9.99
2019/07/15 14:12 PDT    4.27   4.38   16  247   22  62.1  57.7 1016.3 -9.9 -9.999 -99.9 -99.99 -9.99
2019/07/15 14:18 PDT    4.21   4.33   13  238   21  62.6  57.7 1016.4 -9.9 -9.999 -99.9 -99.99 -9.99
2019/07/15 14:24 PDT    4.14   4.25   16  232   22  62.2  57.9 1016.5 -9.9 -9.999 -99.9 -99.99 -9.99
2019/07/15 14:30 PDT    4.08   4.15   13  229   21  62.6  57.9 1016.5 -9.9 -9.999 -99.9 -99.99 -9.99
2019/07/15 14:36 PDT    4.01   4.07   15  236   24  62.6  57.7 1016.4 -9.9 -9.999 -99.9 -99.99 -9.99
2019/07/15 14:42 PDT    3.94   3.99   17  227   24  62.6  57.7 1016.3 -9.9 -9.999 -99.9 -99.99 -9.99
2019/07/15 14:48 PDT    3.88   3.92   17  244   24  62.8  57.7 1016.2 -9.9 -9.999 -99.9 -99.99 -9.99
2019/07/15 14:54 PDT    3.81   3.86   17  237   23  62.6  57.7 1016.2 -9.9 -9.999 -99.9 -99.99 -9.99
2019/07/15 15:00 PDT    3.74   3.84   12  238   20  63.0  57.6 1016.2 -9.9 -9.999 -99.9 -99.99 -9.99
2019/07/15 15:06 PDT    3.68   3.80   12  237   19  63.0  57.6 1016.2 -9.9 -9.999 -99.9 -99.99 -9.99
2019/07/15 15:12 PDT    3.61   3.73   11  241   20  62.6  57.6 1016.1 -9.9 -9.999 -99.9 -99.99 -9.99
2019/07/15 15:18 PDT    3.55   3.68   13  246   22  62.8  57.7 1016.1 -9.9 -9.999 -99.9 -99.99 -9.99
2019/07/15 15:24 PDT    3.49   3.60   13  237   22  62.8  57.7 1016.0 -9.9 -9.999 -99.9 -99.99 -9.99
2019/07/15 15:30 PDT    3.43   3.52   13  235   21  63.1  57.7 1015.9 -9.9 -9.999 -99.9 -99.99 -9.99
2019/07/15 15:36 PDT    3.38   3.46   14  239   22  63.3  57.7 1015.9 -9.9 -9.999 -99.9 -99.99 -9.99
2019/07/15 15:42 PDT    3.32   3.42   16  241   24  62.8  57.7 1015.9 -9.9 -9.999 -99.9 -99.99 -9.99
2019/07/15 15:48 PDT    3.27   3.39   13  248   22  62.8  57.7 1015.8 -9.9 -9.999 -99.9 -99.99 -9.99
2019/07/15 15:54 PDT    3.23   3.28   17  242   24  62.4  57.7 1015.8 -9.9 -9.999 -99.9 -99.99 -9.99
2019/07/15 16:00 PDT    3.18   3.24   17  244   22  62.4  57.9 1015.7 -9.9 -9.999 -99.9 -99.99 -9.99
2019/07/15 16:06 PDT    3.14   3.17   17  245   22  62.4  57.9 1015.8 -9.9 -9.999 -99.9 -99.99 -9.99
2019/07/15 16:12 PDT    3.11   3.14    9  261   21  62.6  57.9 1016.0 -9.9 -9.999 -99.9 -99.99 -9.99
2019/07/15 16:18 PDT    3.07   3.10    8  249   18  62.6  57.9 1015.9 -9.9 -9.999 -99.9 -99.99 -9.99
2019/07/15 16:24 PDT    3.05   3.08   10  233   17  62.8  58.1 1015.7 -9.9 -9.999 -99.9 -99.99 -9.99
2019/07/15 16:30 PDT    3.02   3.03   13  239   16  62.4  58.5 1015.6 -9.9 -9.999 -99.9 -99.99 -9.99
2019/07/15 16:36 PDT    3.00   2.99   14  250   19  62.4  58.8 1015.6 -9.9 -9.999 -99.9 -99.99 -9.99
2019/07/15 16:42 PDT    2.98   2.97   12  249   18  62.2  58.6 1015.5 -9.9 -9.999 -99.9 -99.99 -9.99
2019/07/15 16:48 PDT    2.97   2.94   11  242   22  62.8  58.5 1015.5 -9.9 -9.999 -99.9 -99.99 -9.99
2019/07/15 16:54 PDT    2.96   2.90   15  252   20  62.4  58.5 1015.4 -9.9 -9.999 -99.9 -99.99 -9.99
2019/07/15 17:00 PDT    2.96   2.89   16  240   21  62.1  58.5 1015.4 -9.9 -9.999 -99.9 -99.99 -9.99
2019/07/15 17:06 PDT    2.96   2.85   13  246   20  62.4  58.6 1015.4 -9.9 -9.999 -99.9 -99.99 -9.99
2019/07/15 17:12 PDT    2.96   2.87   12  227   20  62.2  58.8 1015.5 -9.9 -9.999 -99.9 -99.99 -9.99
2019/07/15 17:18 PDT    2.97   2.87   11  241   18  62.8  58.8 1015.4 -9.9 -9.999 -99.9 -99.99 -9.99
2019/07/15 17:24 PDT    2.98   2.91   14  222   21  62.6  58.8 1015.3 -9.9 -9.999 -99.9 -99.99 -9.99
2019/07/15 17:30 PDT    3.00   2.92   15  227   20  62.4  58.8 1015.2 -9.9 -9.999 -99.9 -99.99 -9.99
2019/07/15 17:36 PDT    3.02   2.91   12  230   23  62.4  58.8 1015.2 -9.9 -9.999 -99.9 -99.99 -9.99
2019/07/15 17:42 PDT    3.05   2.91   18  225   23  62.1  58.8 1015.1 -9.9 -9.999 -99.9 -99.99 -9.99
2019/07/15 17:48 PDT    3.08   2.95   15  229   21  61.9  59.0 1015.2 -9.9 -9.999 -99.9 -99.99 -9.99
2019/07/15 17:54 PDT    3.11   2.97   14  230   21  61.7  59.0 1015.1 -9.9 -9.999 -99.9 -99.99 -9.99
2019/07/15 18:00 PDT    3.15   3.01   16  230   24  61.3  59.2 1015.1 -9.9 -9.999 -99.9 -99.99 -9.99
2019/07/15 18:06 PDT    3.19   3.08   15  227   22  61.2  59.2 1015.0 -9.9 -9.999 -99.9 -99.99 -9.99
2019/07/15 18:12 PDT    3.24   3.09   15  226   22  61.2  59.2 1015.0 -9.9 -9.999 -99.9 -99.99 -9.99
2019/07/15 18:18 PDT    3.29   3.11   16  222   20  61.0  59.4 1015.0 -9.9 -9.999 -99.9 -99.99 -9.99
2019/07/15 18:24 PDT    3.34   3.19   14  230   20  61.0  59.4 1015.0 -9.9 -9.999 -99.9 -99.99 -9.99
2019/07/15 18:30 PDT    3.40   3.27   12  230   17  61.0  59.2 1015.0 -9.9 -9.999 -99.9 -99.99 -9.99
2019/07/15 18:36 PDT    3.46   3.32   10  235   20  61.0  59.2 1014.9 -9.9 -9.999 -99.9 -99.99 -9.99
2019/07/15 18:42 PDT    3.53   3.39   11  235   17  61.0  59.4 1014.9 -9.9 -9.999 -99.9 -99.99 -9.99
2019/07/15 18:48 PDT    3.59   3.44   13  237   21  60.8  59.4 1014.9 -9.9 -9.999 -99.9 -99.99 -9.99
2019/07/15 18:54 PDT    3.66   3.50   14  229   21  60.6  59.4 1014.9 -9.9 -9.999 -99.9 -99.99 -9.99
2019/07/15 19:00 PDT    3.73   3.59   12  234   21  60.6  59.5 1014.9 -9.9 -9.999 -99.9 -99.99 -9.99
2019/07/15 19:06 PDT    3.81   3.69   16  223   21  60.6  59.4 1014.8 -9.9 -9.999 -99.9 -99.99 -9.99
2019/07/15 19:12 PDT    3.88   3.79   13  231   22  60.4  59.4 1014.9 -9.9 -9.999 -99.9 -99.99 -9.99
2019/07/15 19:18 PDT    3.96   3.83   14  224   21  60.3  59.2 1014.9 -9.9 -9.999 -99.9 -99.99 -9.99
2019/07/15 19:24 PDT    4.04   3.90   15  228   20  60.3  59.2 1014.9 -9.9 -9.999 -99.9 -99.99 -9.99
2019/07/15 19:30 PDT    4.12   3.98   13  226   22  60.1  59.2 1014.9 -9.9 -9.999 -99.9 -99.99 -9.99
2019/07/15 19:36 PDT    4.21   4.07   12  230   20  60.1  59.2 1014.9 -9.9 -9.999 -99.9 -99.99 -9.99
2019/07/15 19:42 PDT    4.29   4.15   12  226   19  59.9  59.2 1014.8 -9.9 -9.999 -99.9 -99.99 -9.99
2019/07/15 19:48 PDT    4.38   4.23   13  228   22  59.7  59.2 1014.8 -9.9 -9.999 -99.9 -99.99 -9.99
2019/07/15 19:54 PDT    4.46   4.37   12  234   18  59.5  59.4 1014.8 -9.9 -9.999 -99.9 -99.99 -9.99
2019/07/15 20:00 PDT    4.55   4.44   12  240   20  59.4  59.4 1014.8 -9.9 -9.999 -99.9 -99.99 -9.99
2019/07/15 20:06 PDT    4.63   4.52   14  242   21  59.0  59.4 1014.8 -9.9 -9.999 -99.9 -99.99 -9.99
2019/07/15 20:12 PDT    4.72   4.61   14  241   21  59.0  59.4 1014.7 -9.9 -9.999 -99.9 -99.99 -9.99
2019/07/15 20:18 PDT    4.80   4.70   14  239   20  58.8  59.2 1014.7 -9.9 -9.999 -99.9 -99.99 -9.99
2019/07/15 20:24 PDT    4.89   4.78   13  246   21  58.6  59.2 1014.7 -9.9 -9.999 -99.9 -99.99 -9.99
2019/07/15 20:30 PDT    4.97   4.87   15  241   20  58.6  59.2 1014.6 -9.9 -9.999 -99.9 -99.99 -9.99
2019/07/15 20:36 PDT    5.06   4.97   15  246   19  58.5  59.2 1014.7 -9.9 -9.999 -99.9 -99.99 -9.99
2019/07/15 20:42 PDT    5.14   5.03   13  241   19  58.5  58.8 1014.7 -9.9 -9.999 -99.9 -99.99 -9.99
2019/07/15 20:48 PDT    5.22   5.08   14  239   19  58.3  58.8 1014.6 -9.9 -9.999 -99.9 -99.99 -9.99
2019/07/15 20:54 PDT    5.30   5.16   14  244   19  58.3  58.6 1014.6 -9.9 -9.999 -99.9 -99.99 -9.99
2019/07/15 21:00 PDT    5.38   5.26   11  243   20  58.3  58.6 1014.6 -9.9 -9.999 -99.9 -99.99 -9.99
2019/07/15 21:06 PDT    5.46   5.32   13  241   21  58.3  58.6 1014.6 -9.9 -9.999 -99.9 -99.99 -9.99
2019/07/15 21:12 PDT    5.53   5.45   13  239   17  58.1  58.6 1014.5 -9.9 -9.999 -99.9 -99.99 -9.99
2019/07/15 21:18 PDT    5.61   5.54   14  242   20  58.1  58.6 1014.5 -9.9 -9.999 -99.9 -99.99 -9.99
2019/07/15 21:24 PDT    5.68   5.61   13  243   19  58.1  58.8 1014.5 -9.9 -9.999 -99.9 -99.99 -9.99
2019/07/15 21:30 PDT    5.75   5.71   16  241   22  57.9  58.8 1014.5 -9.9 -9.999 -99.9 -99.99 -9.99
2019/07/15 21:36 PDT    5.82   5.78   16  246   23  57.9  58.8 1014.5 -9.9 -9.999 -99.9 -99.99 -9.99
2019/07/15 21:42 PDT    5.88   5.81   12  245   20  57.9  58.8 1014.6 -9.9 -9.999 -99.9 -99.99 -9.99
2019/07/15 21:48 PDT    5.95   5.91   13  244   21  57.7  58.6 1014.5 -9.9 -9.999 -99.9 -99.99 -9.99
2019/07/15 21:54 PDT    6.01   5.98   13  247   18  57.7  58.6 1014.5 -9.9 -9.999 -99.9 -99.99 -9.99
2019/07/15 22:00 PDT    6.06   6.03   13  242   19  57.6  58.5 1014.5 -9.9 -9.999 -99.9 -99.99 -9.99
2019/07/15 22:06 PDT    6.11   6.09   13  248   21  57.6  57.7 1014.5 -9.9 -9.999 -99.9 -99.99 -9.99
2019/07/15 22:12 PDT    6.16   6.19   14  246   20  57.4  57.6 1014.5 -9.9 -9.999 -99.9 -99.99 -9.99
2019/07/15 22:18 PDT    6.21   6.23   14  242   22  57.0  57.2 1014.5 -9.9 -9.999 -99.9 -99.99 -9.99
2019/07/15 22:24 PDT    6.25   6.28   13  250   20  56.8  57.0 1014.5 -9.9 -9.999 -99.9 -99.99 -9.99
2019/07/15 22:30 PDT    6.29   6.32   12  247   19  56.7  56.8 1014.6 -9.9 -9.999 -99.9 -99.99 -9.99
2019/07/15 22:36 PDT    6.32   6.32   12  241   17  56.5  56.8 1014.5 -9.9 -9.999 -99.9 -99.99 -9.99
2019/07/15 22:42 PDT    6.34   6.35   11  246   18  56.5  56.8 1014.4 -9.9 -9.999 -99.9 -99.99 -9.99
2019/07/15 22:48 PDT    6.37   6.38    7  227   19  56.5  56.8 1014.4 -9.9 -9.999 -99.9 -99.99 -9.99
2019/07/15 22:54 PDT    6.38   6.42   13  238   17  56.3  56.8 1014.4 -9.9 -9.999 -99.9 -99.99 -9.99
2019/07/15 23:00 PDT    6.39   6.44   13  242   18  56.3  56.8 1014.4 -9.9 -9.999 -99.9 -99.99 -9.99
2019/07/15 23:06 PDT    6.40   6.44   12  245   17  56.1  56.8 1014.4 -9.9 -9.999 -99.9 -99.99 -9.99
2019/07/15 23:12 PDT    6.40   6.44   11  245   16  56.3  57.0 1014.4 -9.9 -9.999 -99.9 -99.99 -9.99
2019/07/15 23:18 PDT    6.39   6.39   10  237   19  56.3  57.0 1014.5 -9.9 -9.999 -99.9 -99.99 -9.99
2019/07/15 23:24 PDT    6.37   6.40   11  244   14  56.3  57.0 1014.4 -9.9 -9.999 -99.9 -99.99 -9.99
2019/07/15 23:30 PDT    6.35   6.41   11  240   17  56.5  57.0 1014.5 -9.9 -9.999 -99.9 -99.99 -9.99
2019/07/15 23:36 PDT    6.33   6.38    7  245   14  56.5  57.0 1014.5 -9.9 -9.999 -99.9 -99.99 -9.99
2019/07/15 23:42 PDT    6.29   6.33    9  245   16  56.5  57.0 1014.4 -9.9 -9.999 -99.9 -99.99 -9.99
2019/07/15 23:48 PDT    6.25   6.33   12  239   15  56.3  57.0 1014.3 -9.9 -9.999 -99.9 -99.99 -9.99
2019/07/15 23:54 PDT    6.20   6.28   12  231   18  56.3  57.0 1014.2 -9.9 -9.999 -99.9 -99.99 -9.99
2019/07/16 00:00 PDT    6.15   6.21   13  232   18  56.3  57.0 1014.2 -9.9 -9.999 -99.9 -99.99 -9.99
2019/07/16 00:06 PDT    6.09   6.20   11  231   18  56.3  57.0 1014.4 -9.9 -9.999 -99.9 -99.99 -9.99
2019/07/16 00:12 PDT    6.02   6.15    8  232   12  56.3  57.0 1014.4 -9.9 -9.999 -99.9 -99.99 -9.99
2019/07/16 00:18 PDT    5.94   6.08    8  229   12  56.5  57.0 1014.3 -9.9 -9.999 -99.9 -99.99 -9.99
2019/07/16 00:24 PDT    5.86   6.00    7  225   14  56.3  57.0 1014.1 -9.9 -9.999 -99.9 -99.99 -9.99
2019/07/16 00:30 PDT    5.77   5.92   11  238   16  56.3  57.0 1014.1 -9.9 -9.999 -99.9 -99.99 -9.99
2019/07/16 00:36 PDT    5.68   5.80   13  238   17  56.1  56.8 1014.0 -9.9 -9.999 -99.9 -99.99 -9.99
2019/07/16 00:42 PDT    5.58   5.73   13  238   18  56.1  56.8 1013.8 -9.9 -9.999 -99.9 -99.99 -9.99
2019/07/16 00:48 PDT    5.47   5.63   13  244   18  56.1  56.8 1013.8 -9.9 -9.999 -99.9 -99.99 -9.99
2019/07/16 00:54 PDT    5.36   5.51   10  242   17  56.1  56.8 1013.8 -9.9 -9.999 -99.9 -99.99 -9.99
2019/07/16 01:00 PDT    5.24   5.38   11  252   15  56.1  56.8 1013.8 -9.9 -9.999 -99.9 -99.99 -9.99
2019/07/16 01:06 PDT    5.11   5.25    9  259   14  56.1  56.8 1013.8 -9.9 -9.999 -99.9 -99.99 -9.99
2019/07/16 01:12 PDT    4.98   5.12    8  245   11  56.1  56.8 1013.7 -9.9 -9.999 -99.9 -99.99 -9.99
2019/07/16 01:18 PDT    4.85   4.99    8  254   12  56.1  56.8 1013.6 -9.9 -9.999 -99.9 -99.99 -9.99
2019/07/16 01:24 PDT    4.71   4.86    8  256   15  55.9  56.8 1013.6 -9.9 -9.999 -99.9 -99.99 -9.99
2019/07/16 01:30 PDT    4.56   4.70   11  247   17  56.1  56.8 1013.6 -9.9 -9.999 -99.9 -99.99 -9.99
2019/07/16 01:36 PDT    4.41   4.52   12  248   16  55.9  56.8 1013.6 -9.9 -9.999 -99.9 -99.99 -9.99
2019/07/16 01:42 PDT    4.26   4.32    9  253   15  55.9  56.8 1013.7 -9.9 -9.999 -99.9 -99.99 -9.99
2019/07/16 01:48 PDT    4.10   4.11   11  253   18  55.9  56.8 1013.7 -9.9 -9.999 -99.9 -99.99 -9.99
2019/07/16 01:54 PDT    3.95   3.91   10  250   15  55.9  56.8 1013.6 -9.9 -9.999 -99.9 -99.99 -9.99
2019/07/16 02:00 PDT    3.78   3.75   12  242   17  55.8  56.8 1013.5 -9.9 -9.999 -99.9 -99.99 -9.99
2019/07/16 02:06 PDT    3.62   3.62    9  236   19  55.6  56.8 1013.4 -9.9 -9.999 -99.9 -99.99 -9.99
2019/07/16 02:12 PDT    3.45   3.49   13  238   19  55.6  56.8 1013.4 -9.9 -9.999 -99.9 -99.99 -9.99
2019/07/16 02:18 PDT    3.29   3.34   11  242   17  55.4  56.8 1013.5 -9.9 -9.999 -99.9 -99.99 -9.99
2019/07/16 02:24 PDT    3.12   3.18   11  237   17  55.2  56.8 1013.4 -9.9 -9.999 -99.9 -99.99 -9.99
2019/07/16 02:30 PDT    2.95   3.00   10  235   18  55.0  56.8 1013.4 -9.9 -9.999 -99.9 -99.99 -9.99
2019/07/16 02:36 PDT    2.78   2.78   11  244   17  54.9  56.8 1013.4 -9.9 -9.999 -99.9 -99.99 -9.99
2019/07/16 02:42 PDT    2.61   2.55   14  242   20  54.7  56.8 1013.3 -9.9 -9.999 -99.9 -99.99 -9.99
2019/07/16 02:48 PDT    2.44   2.39   13  238   19  54.7  56.8 1013.2 -9.9 -9.999 -99.9 -99.99 -9.99
2019/07/16 02:54 PDT    2.28   2.20   13  234   20  54.5  56.8 1013.2 -9.9 -9.999 -99.9 -99.99 -9.99
2019/07/16 03:00 PDT    2.11 -99.99 -999 -999 -999 -99.9 -99.9 -999.9 -9.9 -9.999 -99.9 -99.99 -9.99
2019/07/16 03:06 PDT    1.95 -99.99 -999 -999 -999 -99.9 -99.9 -999.9 -9.9 -9.999 -99.9 -99.99 -9.99
2019/07/16 03:12 PDT    1.79 -99.99 -999 -999 -999 -99.9 -99.9 -999.9 -9.9 -9.999 -99.9 -99.99 -9.99

Revised: 08/08/2018
NOAA / National Ocean Service
Web site owner: Center for Operational Oceanographic Products and Services